<?xml version="1.0" encoding="UTF-8" standalone="no" ?>
<gpx xmlns="http://www.topografix.com/GPX/1/1" xmlns:xsi="http://www.w3.org/2001/XMLSchema-instance" xsi:schemaLocation="http://www.topografix.com/GPX/1/1 http://www.topografix.com/GPX/1/1/gpx.xsd" version="1.1" creator="VisuGPX - https://www.visugpx.com">
  <metadata>
    <name>Les boucles pour Caussens</name>
  </metadata>
  <trk>
    <name><![CDATA[Sortie à vélo matinale]]></name>
    <extensions>
      <line xmlns="http://www.topografix.com/GPX/gpx_style/0/2">
        <color>888800</color>
        <width>4</width>
      </line>
    </extensions>
    <trkseg>
      <trkpt lat="44.00457" lon="0.50601">
        <ele>127.4</ele>
        <time>2011-04-10T08:05:54Z</time>
      </trkpt>
      <trkpt lat="44.00443" lon="0.50599">
        <ele>128.5</ele>
        <time>2011-04-10T08:05:49Z</time>
      </trkpt>
      <trkpt lat="44.00383" lon="0.5059">
        <ele>130.9</ele>
        <time>2011-04-10T08:05:35Z</time>
      </trkpt>
      <trkpt lat="44.00352" lon="0.50582">
        <ele>132.1</ele>
        <time>2011-04-10T08:05:30Z</time>
      </trkpt>
      <trkpt lat="44.00319" lon="0.50569">
        <ele>131.5</ele>
        <time>2011-04-10T08:05:26Z</time>
      </trkpt>
      <trkpt lat="44.00282" lon="0.50561">
        <ele>129.6</ele>
        <time>2011-04-10T08:05:21Z</time>
      </trkpt>
      <trkpt lat="44.00249" lon="0.50556">
        <ele>130.4</ele>
        <time>2011-04-10T08:05:12Z</time>
      </trkpt>
      <trkpt lat="44.00195" lon="0.50545">
        <ele>129.6</ele>
        <time>2011-04-10T08:04:56Z</time>
      </trkpt>
      <trkpt lat="44.00093" lon="0.5052">
        <ele>132</ele>
        <time>2011-04-10T08:04:36Z</time>
      </trkpt>
      <trkpt lat="44.00048" lon="0.50508">
        <ele>136</ele>
        <time>2011-04-10T08:04:30Z</time>
      </trkpt>
      <trkpt lat="44.00017" lon="0.50498">
        <ele>134.3</ele>
        <time>2011-04-10T08:04:19Z</time>
      </trkpt>
      <trkpt lat="43.99933" lon="0.50463">
        <ele>133.1</ele>
        <time>2011-04-10T08:04:07Z</time>
      </trkpt>
      <trkpt lat="43.99903" lon="0.50452">
        <ele>133.6</ele>
        <time>2011-04-10T08:04:01Z</time>
      </trkpt>
      <trkpt lat="43.99823" lon="0.50419">
        <ele>133.8</ele>
        <time>2011-04-10T08:03:50Z</time>
      </trkpt>
      <trkpt lat="43.99794" lon="0.50411">
        <ele>135.5</ele>
        <time>2011-04-10T08:03:46Z</time>
      </trkpt>
      <trkpt lat="43.99774" lon="0.50408">
        <ele>136.9</ele>
        <time>2011-04-10T08:03:38Z</time>
      </trkpt>
      <trkpt lat="43.99752" lon="0.5043">
        <ele>138.5</ele>
        <time>2011-04-10T08:03:33Z</time>
      </trkpt>
      <trkpt lat="43.99716" lon="0.50437">
        <ele>139.4</ele>
        <time>2011-04-10T08:03:27Z</time>
      </trkpt>
      <trkpt lat="43.99674" lon="0.50405">
        <ele>139.9</ele>
        <time>2011-04-10T08:03:11Z</time>
      </trkpt>
      <trkpt lat="43.99609" lon="0.50373">
        <ele>142.5</ele>
        <time>2011-04-10T08:02:59Z</time>
      </trkpt>
      <trkpt lat="43.99577" lon="0.50362">
        <ele>143.2</ele>
        <time>2011-04-10T08:02:54Z</time>
      </trkpt>
      <trkpt lat="43.9953" lon="0.50362">
        <ele>142.1</ele>
        <time>2011-04-10T08:02:49Z</time>
      </trkpt>
      <trkpt lat="43.99443" lon="0.50369">
        <ele>144</ele>
        <time>2011-04-10T08:02:36Z</time>
      </trkpt>
      <trkpt lat="43.99412" lon="0.50374">
        <ele>142.5</ele>
        <time>2011-04-10T08:02:31Z</time>
      </trkpt>
      <trkpt lat="43.9938" lon="0.50374">
        <ele>142.2</ele>
        <time>2011-04-10T08:02:24Z</time>
      </trkpt>
      <trkpt lat="43.99298" lon="0.50334">
        <ele>147.5</ele>
        <time>2011-04-10T08:02:16Z</time>
      </trkpt>
      <trkpt lat="43.99245" lon="0.50289">
        <ele>151.3</ele>
        <time>2011-04-10T08:01:56Z</time>
      </trkpt>
      <trkpt lat="43.99229" lon="0.50258">
        <ele>148.3</ele>
        <time>2011-04-10T08:01:47Z</time>
      </trkpt>
      <trkpt lat="43.99244" lon="0.50204">
        <ele>141.9</ele>
        <time>2011-04-10T08:01:38Z</time>
      </trkpt>
      <trkpt lat="43.99251" lon="0.50188">
        <ele>143.2</ele>
        <time>2011-04-10T08:01:28Z</time>
      </trkpt>
      <trkpt lat="43.99236" lon="0.50235">
        <ele>147.5</ele>
        <time>2011-04-10T08:01:19Z</time>
      </trkpt>
      <trkpt lat="43.99214" lon="0.50245">
        <ele>146.7</ele>
        <time>2011-04-10T08:01:10Z</time>
      </trkpt>
      <trkpt lat="43.99193" lon="0.50219">
        <ele>145.9</ele>
        <time>2011-04-10T08:01:05Z</time>
      </trkpt>
      <trkpt lat="43.99162" lon="0.5019">
        <ele>145.8</ele>
        <time>2011-04-10T08:01:01Z</time>
      </trkpt>
      <trkpt lat="43.99091" lon="0.50132">
        <ele>145.9</ele>
        <time>2011-04-10T08:00:55Z</time>
      </trkpt>
      <trkpt lat="43.99027" lon="0.50109">
        <ele>149.2</ele>
        <time>2011-04-10T08:00:51Z</time>
      </trkpt>
      <trkpt lat="43.989" lon="0.501">
        <ele>161.7</ele>
        <time>2011-04-10T08:00:45Z</time>
      </trkpt>
      <trkpt lat="43.98797" lon="0.50112">
        <ele>174.4</ele>
        <time>2011-04-10T08:00:35Z</time>
      </trkpt>
      <trkpt lat="43.98748" lon="0.50124">
        <ele>174</ele>
        <time>2011-04-10T08:00:24Z</time>
      </trkpt>
      <trkpt lat="43.98735" lon="0.50129">
        <ele>174.7</ele>
        <time>2011-04-10T08:00:20Z</time>
      </trkpt>
      <trkpt lat="43.98719" lon="0.50133">
        <ele>175.9</ele>
        <time>2011-04-10T08:00:15Z</time>
      </trkpt>
      <trkpt lat="43.98681" lon="0.50139">
        <ele>178.8</ele>
        <time>2011-04-10T08:00:09Z</time>
      </trkpt>
      <trkpt lat="43.98631" lon="0.50137">
        <ele>180.9</ele>
        <time>2011-04-10T08:00:04Z</time>
      </trkpt>
      <trkpt lat="43.98551" lon="0.50097">
        <ele>180.2</ele>
        <time>2011-04-10T07:59:54Z</time>
      </trkpt>
      <trkpt lat="43.98505" lon="0.50073">
        <ele>180.6</ele>
        <time>2011-04-10T07:59:45Z</time>
      </trkpt>
      <trkpt lat="43.98481" lon="0.50038">
        <ele>180.1</ele>
        <time>2011-04-10T07:59:35Z</time>
      </trkpt>
      <trkpt lat="43.98443" lon="0.49962">
        <ele>180</ele>
        <time>2011-04-10T07:59:19Z</time>
      </trkpt>
      <trkpt lat="43.98417" lon="0.49915">
        <ele>181.6</ele>
        <time>2011-04-10T07:59:12Z</time>
      </trkpt>
      <trkpt lat="43.98363" lon="0.49873">
        <ele>181.9</ele>
        <time>2011-04-10T07:59:01Z</time>
      </trkpt>
      <trkpt lat="43.98326" lon="0.49828">
        <ele>189</ele>
        <time>2011-04-10T07:58:52Z</time>
      </trkpt>
      <trkpt lat="43.98296" lon="0.498">
        <ele>189.9</ele>
        <time>2011-04-10T07:58:48Z</time>
      </trkpt>
      <trkpt lat="43.98277" lon="0.49774">
        <ele>190</ele>
        <time>2011-04-10T07:58:43Z</time>
      </trkpt>
      <trkpt lat="43.98259" lon="0.49802">
        <ele>190</ele>
        <time>2011-04-10T07:58:31Z</time>
      </trkpt>
      <trkpt lat="43.98247" lon="0.4984">
        <ele>190.2</ele>
        <time>2011-04-10T07:58:23Z</time>
      </trkpt>
      <trkpt lat="43.98222" lon="0.49879">
        <ele>190.5</ele>
        <time>2011-04-10T07:58:11Z</time>
      </trkpt>
      <trkpt lat="43.98196" lon="0.4993">
        <ele>190.9</ele>
        <time>2011-04-10T07:58:00Z</time>
      </trkpt>
      <trkpt lat="43.98184" lon="0.49942">
        <ele>190.9</ele>
        <time>2011-04-10T07:57:56Z</time>
      </trkpt>
      <trkpt lat="43.9817" lon="0.49983">
        <ele>189.6</ele>
        <time>2011-04-10T07:57:50Z</time>
      </trkpt>
      <trkpt lat="43.98158" lon="0.50006">
        <ele>189.1</ele>
        <time>2011-04-10T07:57:39Z</time>
      </trkpt>
      <trkpt lat="43.98172" lon="0.49969">
        <ele>190.1</ele>
        <time>2011-04-10T07:57:31Z</time>
      </trkpt>
      <trkpt lat="43.98165" lon="0.49949">
        <ele>188.3</ele>
        <time>2011-04-10T07:57:23Z</time>
      </trkpt>
      <trkpt lat="43.98143" lon="0.4994">
        <ele>188</ele>
        <time>2011-04-10T07:57:18Z</time>
      </trkpt>
      <trkpt lat="43.98145" lon="0.49914">
        <ele>187</ele>
        <time>2011-04-10T07:57:05Z</time>
      </trkpt>
      <trkpt lat="43.98152" lon="0.49898">
        <ele>186.6</ele>
        <time>2011-04-10T07:57:00Z</time>
      </trkpt>
      <trkpt lat="43.98164" lon="0.49857">
        <ele>187</ele>
        <time>2011-04-10T07:56:51Z</time>
      </trkpt>
      <trkpt lat="43.98192" lon="0.49776">
        <ele>189.6</ele>
        <time>2011-04-10T07:56:36Z</time>
      </trkpt>
      <trkpt lat="43.98218" lon="0.49755">
        <ele>188.7</ele>
        <time>2011-04-10T07:56:21Z</time>
      </trkpt>
      <trkpt lat="43.98261" lon="0.49781">
        <ele>190.5</ele>
        <time>2011-04-10T07:55:06Z</time>
      </trkpt>
      <trkpt lat="43.98254" lon="0.49798">
        <ele>190</ele>
        <time>2011-04-10T07:54:48Z</time>
      </trkpt>
      <trkpt lat="43.98258" lon="0.49814">
        <ele>190</ele>
        <time>2011-04-10T07:54:43Z</time>
      </trkpt>
      <trkpt lat="43.98258" lon="0.49836">
        <ele>190</ele>
        <time>2011-04-10T07:54:39Z</time>
      </trkpt>
      <trkpt lat="43.9829" lon="0.49852">
        <ele>189.9</ele>
        <time>2011-04-10T07:54:32Z</time>
      </trkpt>
      <trkpt lat="43.98319" lon="0.49854">
        <ele>189.4</ele>
        <time>2011-04-10T07:54:28Z</time>
      </trkpt>
      <trkpt lat="43.98348" lon="0.49869">
        <ele>182</ele>
        <time>2011-04-10T07:54:24Z</time>
      </trkpt>
      <trkpt lat="43.98419" lon="0.49912">
        <ele>181.6</ele>
        <time>2011-04-10T07:54:13Z</time>
      </trkpt>
      <trkpt lat="43.98439" lon="0.4994">
        <ele>180.8</ele>
        <time>2011-04-10T07:54:09Z</time>
      </trkpt>
      <trkpt lat="43.98461" lon="0.49982">
        <ele>179.9</ele>
        <time>2011-04-10T07:54:04Z</time>
      </trkpt>
      <trkpt lat="43.98516" lon="0.50066">
        <ele>180.5</ele>
        <time>2011-04-10T07:53:54Z</time>
      </trkpt>
      <trkpt lat="43.98519" lon="0.50093">
        <ele>180.9</ele>
        <time>2011-04-10T07:50:03Z</time>
      </trkpt>
      <trkpt lat="43.98521" lon="0.50091">
        <ele>181</ele>
        <time>2011-04-10T07:49:33Z</time>
      </trkpt>
      <trkpt lat="43.98553" lon="0.5009">
        <ele>180.2</ele>
        <time>2011-04-10T07:49:24Z</time>
      </trkpt>
      <trkpt lat="43.9858" lon="0.50097">
        <ele>179.8</ele>
        <time>2011-04-10T07:49:12Z</time>
      </trkpt>
      <trkpt lat="43.98606" lon="0.50109">
        <ele>180.4</ele>
        <time>2011-04-10T07:48:57Z</time>
      </trkpt>
      <trkpt lat="43.98658" lon="0.50125">
        <ele>179.7</ele>
        <time>2011-04-10T07:48:43Z</time>
      </trkpt>
      <trkpt lat="43.98696" lon="0.50124">
        <ele>178.1</ele>
        <time>2011-04-10T07:48:37Z</time>
      </trkpt>
      <trkpt lat="43.98725" lon="0.50121">
        <ele>175.4</ele>
        <time>2011-04-10T07:48:22Z</time>
      </trkpt>
      <trkpt lat="43.98773" lon="0.50113">
        <ele>173.8</ele>
        <time>2011-04-10T07:48:03Z</time>
      </trkpt>
      <trkpt lat="43.98822" lon="0.50111">
        <ele>172.5</ele>
        <time>2011-04-10T07:47:37Z</time>
      </trkpt>
      <trkpt lat="43.98848" lon="0.50118">
        <ele>169.3</ele>
        <time>2011-04-10T07:47:26Z</time>
      </trkpt>
      <trkpt lat="43.9888" lon="0.50123">
        <ele>166.3</ele>
        <time>2011-04-10T07:47:07Z</time>
      </trkpt>
      <trkpt lat="43.98896" lon="0.50121">
        <ele>164.5</ele>
        <time>2011-04-10T07:47:01Z</time>
      </trkpt>
      <trkpt lat="43.98969" lon="0.50121">
        <ele>155.8</ele>
        <time>2011-04-10T07:46:31Z</time>
      </trkpt>
      <trkpt lat="43.99028" lon="0.50119">
        <ele>149.3</ele>
        <time>2011-04-10T07:46:02Z</time>
      </trkpt>
      <trkpt lat="43.99055" lon="0.50124">
        <ele>147.4</ele>
        <time>2011-04-10T07:45:52Z</time>
      </trkpt>
      <trkpt lat="43.99118" lon="0.50158">
        <ele>145.2</ele>
        <time>2011-04-10T07:45:42Z</time>
      </trkpt>
      <trkpt lat="43.99144" lon="0.50181">
        <ele>145.9</ele>
        <time>2011-04-10T07:45:35Z</time>
      </trkpt>
      <trkpt lat="43.99169" lon="0.50208">
        <ele>145.9</ele>
        <time>2011-04-10T07:45:28Z</time>
      </trkpt>
      <trkpt lat="43.99233" lon="0.50288">
        <ele>150.7</ele>
        <time>2011-04-10T07:45:10Z</time>
      </trkpt>
      <trkpt lat="43.99276" lon="0.50323">
        <ele>149.9</ele>
        <time>2011-04-10T07:44:55Z</time>
      </trkpt>
      <trkpt lat="43.99297" lon="0.50331">
        <ele>147.5</ele>
        <time>2011-04-10T07:44:51Z</time>
      </trkpt>
      <trkpt lat="43.99367" lon="0.50343">
        <ele>142.3</ele>
        <time>2011-04-10T07:44:39Z</time>
      </trkpt>
      <trkpt lat="43.99458" lon="0.50358">
        <ele>145.8</ele>
        <time>2011-04-10T07:44:30Z</time>
      </trkpt>
      <trkpt lat="43.99487" lon="0.50355">
        <ele>145.9</ele>
        <time>2011-04-10T07:44:15Z</time>
      </trkpt>
      <trkpt lat="43.99516" lon="0.50348">
        <ele>142.7</ele>
        <time>2011-04-10T07:44:02Z</time>
      </trkpt>
      <trkpt lat="43.99561" lon="0.50348">
        <ele>142</ele>
        <time>2011-04-10T07:43:43Z</time>
      </trkpt>
      <trkpt lat="43.9959" lon="0.50365">
        <ele>144.6</ele>
        <time>2011-04-10T07:43:35Z</time>
      </trkpt>
      <trkpt lat="43.99617" lon="0.50385">
        <ele>145</ele>
        <time>2011-04-10T07:43:27Z</time>
      </trkpt>
      <trkpt lat="43.99658" lon="0.50412">
        <ele>143.3</ele>
        <time>2011-04-10T07:43:14Z</time>
      </trkpt>
      <trkpt lat="43.99698" lon="0.50437">
        <ele>142</ele>
        <time>2011-04-10T07:43:01Z</time>
      </trkpt>
      <trkpt lat="43.99715" lon="0.50446">
        <ele>141.8</ele>
        <time>2011-04-10T07:42:55Z</time>
      </trkpt>
      <trkpt lat="43.99736" lon="0.50451">
        <ele>142.5</ele>
        <time>2011-04-10T07:42:45Z</time>
      </trkpt>
      <trkpt lat="43.99749" lon="0.50432">
        <ele>140.5</ele>
        <time>2011-04-10T07:42:24Z</time>
      </trkpt>
      <trkpt lat="43.99752" lon="0.50413">
        <ele>138.9</ele>
        <time>2011-04-10T07:42:19Z</time>
      </trkpt>
      <trkpt lat="43.99762" lon="0.504">
        <ele>138.1</ele>
        <time>2011-04-10T07:42:13Z</time>
      </trkpt>
      <trkpt lat="43.99778" lon="0.50399">
        <ele>137.6</ele>
        <time>2011-04-10T07:42:08Z</time>
      </trkpt>
      <trkpt lat="43.99793" lon="0.50403">
        <ele>137</ele>
        <time>2011-04-10T07:42:03Z</time>
      </trkpt>
      <trkpt lat="43.99819" lon="0.50423">
        <ele>135.7</ele>
        <time>2011-04-10T07:41:54Z</time>
      </trkpt>
      <trkpt lat="43.99833" lon="0.5043">
        <ele>136.3</ele>
        <time>2011-04-10T07:41:48Z</time>
      </trkpt>
      <trkpt lat="43.99875" lon="0.50445">
        <ele>135.8</ele>
        <time>2011-04-10T07:41:35Z</time>
      </trkpt>
      <trkpt lat="43.99951" lon="0.50481">
        <ele>135.7</ele>
        <time>2011-04-10T07:41:11Z</time>
      </trkpt>
      <trkpt lat="43.99968" lon="0.50485">
        <ele>135.6</ele>
        <time>2011-04-10T07:41:06Z</time>
      </trkpt>
      <trkpt lat="44.0002" lon="0.50498">
        <ele>135.9</ele>
        <time>2011-04-10T07:40:50Z</time>
      </trkpt>
      <trkpt lat="44.00049" lon="0.50508">
        <ele>137.5</ele>
        <time>2011-04-10T07:40:41Z</time>
      </trkpt>
      <trkpt lat="44.00085" lon="0.50515">
        <ele>133.7</ele>
        <time>2011-04-10T07:40:30Z</time>
      </trkpt>
      <trkpt lat="44.00128" lon="0.50529">
        <ele>134</ele>
        <time>2011-04-10T07:40:17Z</time>
      </trkpt>
      <trkpt lat="44.00149" lon="0.50535">
        <ele>133.2</ele>
        <time>2011-04-10T07:40:11Z</time>
      </trkpt>
      <trkpt lat="44.00167" lon="0.50538">
        <ele>132.1</ele>
        <time>2011-04-10T07:40:06Z</time>
      </trkpt>
      <trkpt lat="44.00196" lon="0.50549">
        <ele>131.1</ele>
        <time>2011-04-10T07:39:57Z</time>
      </trkpt>
      <trkpt lat="44.00211" lon="0.50552">
        <ele>131.3</ele>
        <time>2011-04-10T07:39:53Z</time>
      </trkpt>
      <trkpt lat="44.00271" lon="0.50555">
        <ele>131.2</ele>
        <time>2011-04-10T07:39:35Z</time>
      </trkpt>
      <trkpt lat="44.00289" lon="0.50554">
        <ele>131.2</ele>
        <time>2011-04-10T07:39:30Z</time>
      </trkpt>
      <trkpt lat="44.00343" lon="0.50562">
        <ele>133.4</ele>
        <time>2011-04-10T07:39:16Z</time>
      </trkpt>
      <trkpt lat="44.00357" lon="0.50566">
        <ele>133.5</ele>
        <time>2011-04-10T07:39:12Z</time>
      </trkpt>
      <trkpt lat="44.00377" lon="0.50575">
        <ele>132.8</ele>
        <time>2011-04-10T07:39:07Z</time>
      </trkpt>
      <trkpt lat="44.00398" lon="0.50593">
        <ele>132.3</ele>
        <time>2011-04-10T07:38:58Z</time>
      </trkpt>
      <trkpt lat="44.00421" lon="0.50597">
        <ele>131.7</ele>
        <time>2011-04-10T07:38:46Z</time>
      </trkpt>
      <trkpt lat="44.00435" lon="0.506">
        <ele>130.9</ele>
        <time>2011-04-10T07:38:39Z</time>
      </trkpt>
      <trkpt lat="44.00486" lon="0.50615">
        <ele>128.7</ele>
        <time>2011-04-10T07:38:22Z</time>
      </trkpt>
      <trkpt lat="44.00538" lon="0.50617">
        <ele>127.1</ele>
        <time>2011-04-10T07:38:06Z</time>
      </trkpt>
      <trkpt lat="44.00604" lon="0.50623">
        <ele>126.6</ele>
        <time>2011-04-10T07:37:48Z</time>
      </trkpt>
      <trkpt lat="44.00636" lon="0.50621">
        <ele>128.3</ele>
        <time>2011-04-10T07:37:38Z</time>
      </trkpt>
      <trkpt lat="44.00668" lon="0.50618">
        <ele>129.1</ele>
        <time>2011-04-10T07:37:27Z</time>
      </trkpt>
      <trkpt lat="44.00692" lon="0.50614">
        <ele>128.1</ele>
        <time>2011-04-10T07:37:19Z</time>
      </trkpt>
      <trkpt lat="44.00715" lon="0.50614">
        <ele>127.2</ele>
        <time>2011-04-10T07:37:12Z</time>
      </trkpt>
      <trkpt lat="44.00731" lon="0.50619">
        <ele>126.6</ele>
        <time>2011-04-10T07:37:07Z</time>
      </trkpt>
      <trkpt lat="44.00762" lon="0.50644">
        <ele>126</ele>
        <time>2011-04-10T07:36:57Z</time>
      </trkpt>
      <trkpt lat="44.00779" lon="0.5065">
        <ele>125.5</ele>
        <time>2011-04-10T07:36:52Z</time>
      </trkpt>
      <trkpt lat="44.0081" lon="0.50652">
        <ele>125</ele>
        <time>2011-04-10T07:36:43Z</time>
      </trkpt>
      <trkpt lat="44.0085" lon="0.5065">
        <ele>123.9</ele>
        <time>2011-04-10T07:36:29Z</time>
      </trkpt>
      <trkpt lat="44.00924" lon="0.50662">
        <ele>125.2</ele>
        <time>2011-04-10T07:36:09Z</time>
      </trkpt>
      <trkpt lat="44.00959" lon="0.50663">
        <ele>123.7</ele>
        <time>2011-04-10T07:36:01Z</time>
      </trkpt>
      <trkpt lat="44.00974" lon="0.50669">
        <ele>123.4</ele>
        <time>2011-04-10T07:35:57Z</time>
      </trkpt>
      <trkpt lat="44.0105" lon="0.50724">
        <ele>122.4</ele>
        <time>2011-04-10T07:35:26Z</time>
      </trkpt>
      <trkpt lat="44.01077" lon="0.50747">
        <ele>122.6</ele>
        <time>2011-04-10T07:35:16Z</time>
      </trkpt>
      <trkpt lat="44.01098" lon="0.5076">
        <ele>122.6</ele>
        <time>2011-04-10T07:34:12Z</time>
      </trkpt>
      <trkpt lat="44.01135" lon="0.5079">
        <ele>122.2</ele>
        <time>2011-04-10T07:33:57Z</time>
      </trkpt>
      <trkpt lat="44.01147" lon="0.508">
        <ele>121.7</ele>
        <time>2011-04-10T07:33:53Z</time>
      </trkpt>
      <trkpt lat="44.01168" lon="0.50823">
        <ele>122.3</ele>
        <time>2011-04-10T07:33:45Z</time>
      </trkpt>
      <trkpt lat="44.0118" lon="0.50832">
        <ele>122.5</ele>
        <time>2011-04-10T07:33:41Z</time>
      </trkpt>
      <trkpt lat="44.01206" lon="0.50861">
        <ele>121</ele>
        <time>2011-04-10T07:33:33Z</time>
      </trkpt>
      <trkpt lat="44.01233" lon="0.50884">
        <ele>119.4</ele>
        <time>2011-04-10T07:33:25Z</time>
      </trkpt>
      <trkpt lat="44.01263" lon="0.50878">
        <ele>120</ele>
        <time>2011-04-10T07:33:18Z</time>
      </trkpt>
      <trkpt lat="44.01288" lon="0.50853">
        <ele>122</ele>
        <time>2011-04-10T07:33:11Z</time>
      </trkpt>
      <trkpt lat="44.01318" lon="0.50831">
        <ele>123</ele>
        <time>2011-04-10T07:33:03Z</time>
      </trkpt>
      <trkpt lat="44.0137" lon="0.50803">
        <ele>122</ele>
        <time>2011-04-10T07:32:51Z</time>
      </trkpt>
      <trkpt lat="44.01386" lon="0.508">
        <ele>121.5</ele>
        <time>2011-04-10T07:32:47Z</time>
      </trkpt>
      <trkpt lat="44.01454" lon="0.50788">
        <ele>121.8</ele>
        <time>2011-04-10T07:32:31Z</time>
      </trkpt>
      <trkpt lat="44.01469" lon="0.50792">
        <ele>121.1</ele>
        <time>2011-04-10T07:32:27Z</time>
      </trkpt>
      <trkpt lat="44.01514" lon="0.50817">
        <ele>121.2</ele>
        <time>2011-04-10T07:32:15Z</time>
      </trkpt>
      <trkpt lat="44.0156" lon="0.50837">
        <ele>120.3</ele>
        <time>2011-04-10T07:32:03Z</time>
      </trkpt>
      <trkpt lat="44.01588" lon="0.50852">
        <ele>119.6</ele>
        <time>2011-04-10T07:31:57Z</time>
      </trkpt>
      <trkpt lat="44.01621" lon="0.50861">
        <ele>119.7</ele>
        <time>2011-04-10T07:31:50Z</time>
      </trkpt>
      <trkpt lat="44.01653" lon="0.50882">
        <ele>119.4</ele>
        <time>2011-04-10T07:31:43Z</time>
      </trkpt>
      <trkpt lat="44.01674" lon="0.50915">
        <ele>119.7</ele>
        <time>2011-04-10T07:31:37Z</time>
      </trkpt>
      <trkpt lat="44.01698" lon="0.50936">
        <ele>120.3</ele>
        <time>2011-04-10T07:31:00Z</time>
      </trkpt>
      <trkpt lat="44.01733" lon="0.50944">
        <ele>120.9</ele>
        <time>2011-04-10T07:30:54Z</time>
      </trkpt>
      <trkpt lat="44.01798" lon="0.50966">
        <ele>122.6</ele>
        <time>2011-04-10T07:30:40Z</time>
      </trkpt>
      <trkpt lat="44.01848" lon="0.50979">
        <ele>121.8</ele>
        <time>2011-04-10T07:30:28Z</time>
      </trkpt>
      <trkpt lat="44.01883" lon="0.5098">
        <ele>121</ele>
        <time>2011-04-10T07:30:20Z</time>
      </trkpt>
      <trkpt lat="44.01914" lon="0.50971">
        <ele>119.4</ele>
        <time>2011-04-10T07:30:12Z</time>
      </trkpt>
      <trkpt lat="44.01943" lon="0.50964">
        <ele>117.9</ele>
        <time>2011-04-10T07:30:04Z</time>
      </trkpt>
      <trkpt lat="44.01958" lon="0.50962">
        <ele>118.3</ele>
        <time>2011-04-10T07:30:00Z</time>
      </trkpt>
      <trkpt lat="44.0199" lon="0.50963">
        <ele>118.7</ele>
        <time>2011-04-10T07:29:52Z</time>
      </trkpt>
      <trkpt lat="44.02055" lon="0.50971">
        <ele>119.5</ele>
        <time>2011-04-10T07:29:36Z</time>
      </trkpt>
      <trkpt lat="44.02084" lon="0.50977">
        <ele>119.8</ele>
        <time>2011-04-10T07:29:28Z</time>
      </trkpt>
      <trkpt lat="44.02126" lon="0.50982">
        <ele>119.6</ele>
        <time>2011-04-10T07:29:17Z</time>
      </trkpt>
      <trkpt lat="44.02158" lon="0.50985">
        <ele>119.5</ele>
        <time>2011-04-10T07:29:11Z</time>
      </trkpt>
      <trkpt lat="44.02259" lon="0.50984">
        <ele>120.2</ele>
        <time>2011-04-10T07:28:53Z</time>
      </trkpt>
      <trkpt lat="44.02274" lon="0.50984">
        <ele>121.1</ele>
        <time>2011-04-10T07:28:49Z</time>
      </trkpt>
      <trkpt lat="44.0232" lon="0.50978">
        <ele>120.9</ele>
        <time>2011-04-10T07:28:31Z</time>
      </trkpt>
      <trkpt lat="44.02377" lon="0.51001">
        <ele>122.7</ele>
        <time>2011-04-10T07:28:10Z</time>
      </trkpt>
      <trkpt lat="44.02406" lon="0.51001">
        <ele>120.6</ele>
        <time>2011-04-10T07:28:02Z</time>
      </trkpt>
      <trkpt lat="44.02457" lon="0.50996">
        <ele>119.5</ele>
        <time>2011-04-10T07:27:49Z</time>
      </trkpt>
      <trkpt lat="44.02472" lon="0.50994">
        <ele>118.2</ele>
        <time>2011-04-10T07:27:45Z</time>
      </trkpt>
      <trkpt lat="44.02513" lon="0.50978">
        <ele>115.6</ele>
        <time>2011-04-10T07:27:33Z</time>
      </trkpt>
      <trkpt lat="44.02528" lon="0.50977">
        <ele>115.3</ele>
        <time>2011-04-10T07:27:28Z</time>
      </trkpt>
      <trkpt lat="44.02574" lon="0.50986">
        <ele>113.9</ele>
        <time>2011-04-10T07:27:14Z</time>
      </trkpt>
      <trkpt lat="44.02634" lon="0.50979">
        <ele>113.7</ele>
        <time>2011-04-10T07:26:57Z</time>
      </trkpt>
      <trkpt lat="44.02649" lon="0.5098">
        <ele>113.6</ele>
        <time>2011-04-10T07:26:52Z</time>
      </trkpt>
      <trkpt lat="44.02696" lon="0.50966">
        <ele>113.4</ele>
        <time>2011-04-10T07:26:39Z</time>
      </trkpt>
      <trkpt lat="44.02721" lon="0.50952">
        <ele>113.8</ele>
        <time>2011-04-10T07:26:34Z</time>
      </trkpt>
      <trkpt lat="44.02754" lon="0.50935">
        <ele>113.3</ele>
        <time>2011-04-10T07:26:28Z</time>
      </trkpt>
      <trkpt lat="44.02808" lon="0.50916">
        <ele>113.7</ele>
        <time>2011-04-10T07:26:18Z</time>
      </trkpt>
      <trkpt lat="44.0286" lon="0.50906">
        <ele>114.8</ele>
        <time>2011-04-10T07:26:08Z</time>
      </trkpt>
      <trkpt lat="44.02904" lon="0.50921">
        <ele>114.8</ele>
        <time>2011-04-10T07:26:02Z</time>
      </trkpt>
      <trkpt lat="44.02953" lon="0.50964">
        <ele>117.1</ele>
        <time>2011-04-10T07:25:56Z</time>
      </trkpt>
      <trkpt lat="44.03119" lon="0.51045">
        <ele>125.7</ele>
        <time>2011-04-10T07:25:38Z</time>
      </trkpt>
      <trkpt lat="44.03224" lon="0.51115">
        <ele>136.5</ele>
        <time>2011-04-10T07:25:26Z</time>
      </trkpt>
      <trkpt lat="44.03313" lon="0.51151">
        <ele>142.6</ele>
        <time>2011-04-10T07:25:15Z</time>
      </trkpt>
      <trkpt lat="44.03408" lon="0.51199">
        <ele>135.8</ele>
        <time>2011-04-10T07:24:22Z</time>
      </trkpt>
      <trkpt lat="44.03424" lon="0.51205">
        <ele>134.8</ele>
        <time>2011-04-10T07:24:16Z</time>
      </trkpt>
      <trkpt lat="44.03441" lon="0.51211">
        <ele>134.3</ele>
        <time>2011-04-10T07:24:06Z</time>
      </trkpt>
      <trkpt lat="44.03467" lon="0.51226">
        <ele>133.4</ele>
        <time>2011-04-10T07:23:52Z</time>
      </trkpt>
      <trkpt lat="44.03516" lon="0.51236">
        <ele>133.2</ele>
        <time>2011-04-10T07:23:44Z</time>
      </trkpt>
      <trkpt lat="44.03605" lon="0.51278">
        <ele>132.8</ele>
        <time>2011-04-10T07:23:32Z</time>
      </trkpt>
      <trkpt lat="44.03647" lon="0.51292">
        <ele>135.6</ele>
        <time>2011-04-10T07:23:26Z</time>
      </trkpt>
      <trkpt lat="44.03674" lon="0.5131">
        <ele>139.5</ele>
        <time>2011-04-10T07:23:21Z</time>
      </trkpt>
      <trkpt lat="44.03679" lon="0.51391">
        <ele>143.6</ele>
        <time>2011-04-10T07:23:14Z</time>
      </trkpt>
      <trkpt lat="44.03675" lon="0.51583">
        <ele>159.6</ele>
        <time>2011-04-10T07:23:02Z</time>
      </trkpt>
      <trkpt lat="44.03661" lon="0.5165">
        <ele>164.3</ele>
        <time>2011-04-10T07:22:56Z</time>
      </trkpt>
      <trkpt lat="44.03631" lon="0.51708">
        <ele>172</ele>
        <time>2011-04-10T07:22:50Z</time>
      </trkpt>
      <trkpt lat="44.03616" lon="0.51762">
        <ele>178.7</ele>
        <time>2011-04-10T07:22:44Z</time>
      </trkpt>
      <trkpt lat="44.03615" lon="0.51813">
        <ele>180.8</ele>
        <time>2011-04-10T07:22:38Z</time>
      </trkpt>
      <trkpt lat="44.03632" lon="0.51847">
        <ele>184.2</ele>
        <time>2011-04-10T07:22:32Z</time>
      </trkpt>
      <trkpt lat="44.03681" lon="0.51905">
        <ele>189.8</ele>
        <time>2011-04-10T07:22:19Z</time>
      </trkpt>
      <trkpt lat="44.03709" lon="0.51924">
        <ele>192.4</ele>
        <time>2011-04-10T07:22:12Z</time>
      </trkpt>
      <trkpt lat="44.03737" lon="0.51919">
        <ele>191.2</ele>
        <time>2011-04-10T07:22:06Z</time>
      </trkpt>
      <trkpt lat="44.03765" lon="0.51906">
        <ele>191.2</ele>
        <time>2011-04-10T07:22:00Z</time>
      </trkpt>
      <trkpt lat="44.03789" lon="0.51889">
        <ele>188.4</ele>
        <time>2011-04-10T07:21:55Z</time>
      </trkpt>
      <trkpt lat="44.03816" lon="0.51878">
        <ele>186.1</ele>
        <time>2011-04-10T07:21:50Z</time>
      </trkpt>
      <trkpt lat="44.03841" lon="0.5186">
        <ele>184</ele>
        <time>2011-04-10T07:21:38Z</time>
      </trkpt>
      <trkpt lat="44.03861" lon="0.51835">
        <ele>181.2</ele>
        <time>2011-04-10T07:21:21Z</time>
      </trkpt>
      <trkpt lat="44.03888" lon="0.51785">
        <ele>176.9</ele>
        <time>2011-04-10T07:21:03Z</time>
      </trkpt>
      <trkpt lat="44.03903" lon="0.51745">
        <ele>173.4</ele>
        <time>2011-04-10T07:20:41Z</time>
      </trkpt>
      <trkpt lat="44.03921" lon="0.51674">
        <ele>168.5</ele>
        <time>2011-04-10T07:20:06Z</time>
      </trkpt>
      <trkpt lat="44.03928" lon="0.51657">
        <ele>166.8</ele>
        <time>2011-04-10T07:19:56Z</time>
      </trkpt>
      <trkpt lat="44.03948" lon="0.51645">
        <ele>164.5</ele>
        <time>2011-04-10T07:19:49Z</time>
      </trkpt>
      <trkpt lat="44.03951" lon="0.51646">
        <ele>164.5</ele>
        <time>2011-04-10T07:19:44Z</time>
      </trkpt>
      <trkpt lat="44.03967" lon="0.51668">
        <ele>159.7</ele>
        <time>2011-04-10T07:19:34Z</time>
      </trkpt>
      <trkpt lat="44.03987" lon="0.51697">
        <ele>156.5</ele>
        <time>2011-04-10T07:19:25Z</time>
      </trkpt>
      <trkpt lat="44.04026" lon="0.51754">
        <ele>153.9</ele>
        <time>2011-04-10T07:19:07Z</time>
      </trkpt>
      <trkpt lat="44.04045" lon="0.51785">
        <ele>150</ele>
        <time>2011-04-10T07:18:50Z</time>
      </trkpt>
      <trkpt lat="44.04074" lon="0.51818">
        <ele>150.3</ele>
        <time>2011-04-10T07:18:27Z</time>
      </trkpt>
      <trkpt lat="44.04085" lon="0.51839">
        <ele>149.6</ele>
        <time>2011-04-10T07:18:15Z</time>
      </trkpt>
      <trkpt lat="44.04101" lon="0.51853">
        <ele>146.6</ele>
        <time>2011-04-10T07:18:04Z</time>
      </trkpt>
      <trkpt lat="44.04129" lon="0.5189">
        <ele>144.1</ele>
        <time>2011-04-10T07:17:50Z</time>
      </trkpt>
      <trkpt lat="44.04149" lon="0.51903">
        <ele>141</ele>
        <time>2011-04-10T07:17:35Z</time>
      </trkpt>
      <trkpt lat="44.04163" lon="0.51915">
        <ele>139.2</ele>
        <time>2011-04-10T07:17:24Z</time>
      </trkpt>
      <trkpt lat="44.04194" lon="0.51927">
        <ele>135.2</ele>
        <time>2011-04-10T07:17:11Z</time>
      </trkpt>
      <trkpt lat="44.04209" lon="0.51952">
        <ele>135.1</ele>
        <time>2011-04-10T07:17:07Z</time>
      </trkpt>
      <trkpt lat="44.04228" lon="0.51991">
        <ele>136.6</ele>
        <time>2011-04-10T07:17:02Z</time>
      </trkpt>
      <trkpt lat="44.04229" lon="0.52015">
        <ele>139</ele>
        <time>2011-04-10T07:16:58Z</time>
      </trkpt>
      <trkpt lat="44.04227" lon="0.52037">
        <ele>141.3</ele>
        <time>2011-04-10T07:16:53Z</time>
      </trkpt>
      <trkpt lat="44.04243" lon="0.52055">
        <ele>141.4</ele>
        <time>2011-04-10T07:16:44Z</time>
      </trkpt>
      <trkpt lat="44.04272" lon="0.52067">
        <ele>138.6</ele>
        <time>2011-04-10T07:16:29Z</time>
      </trkpt>
      <trkpt lat="44.04285" lon="0.52075">
        <ele>138.2</ele>
        <time>2011-04-10T07:16:24Z</time>
      </trkpt>
      <trkpt lat="44.04302" lon="0.52136">
        <ele>139.9</ele>
        <time>2011-04-10T07:16:17Z</time>
      </trkpt>
      <trkpt lat="44.04288" lon="0.52173">
        <ele>143</ele>
        <time>2011-04-10T07:16:12Z</time>
      </trkpt>
      <trkpt lat="44.04268" lon="0.52206">
        <ele>149.1</ele>
        <time>2011-04-10T07:16:06Z</time>
      </trkpt>
      <trkpt lat="44.04264" lon="0.52252">
        <ele>150.2</ele>
        <time>2011-04-10T07:16:01Z</time>
      </trkpt>
      <trkpt lat="44.04276" lon="0.52276">
        <ele>148.8</ele>
        <time>2011-04-10T07:15:48Z</time>
      </trkpt>
      <trkpt lat="44.04313" lon="0.52304">
        <ele>143.4</ele>
        <time>2011-04-10T07:15:22Z</time>
      </trkpt>
      <trkpt lat="44.04358" lon="0.52334">
        <ele>137.8</ele>
        <time>2011-04-10T07:14:48Z</time>
      </trkpt>
      <trkpt lat="44.04376" lon="0.52345">
        <ele>136.9</ele>
        <time>2011-04-10T07:14:37Z</time>
      </trkpt>
      <trkpt lat="44.04395" lon="0.52354">
        <ele>135.3</ele>
        <time>2011-04-10T07:14:18Z</time>
      </trkpt>
      <trkpt lat="44.04451" lon="0.5239">
        <ele>127</ele>
        <time>2011-04-10T07:13:49Z</time>
      </trkpt>
      <trkpt lat="44.04463" lon="0.52401">
        <ele>126.4</ele>
        <time>2011-04-10T07:13:43Z</time>
      </trkpt>
      <trkpt lat="44.04493" lon="0.52445">
        <ele>125</ele>
        <time>2011-04-10T07:13:30Z</time>
      </trkpt>
      <trkpt lat="44.04514" lon="0.5248">
        <ele>126.3</ele>
        <time>2011-04-10T07:13:25Z</time>
      </trkpt>
      <trkpt lat="44.04547" lon="0.52566">
        <ele>128.7</ele>
        <time>2011-04-10T07:13:07Z</time>
      </trkpt>
      <trkpt lat="44.04558" lon="0.52588">
        <ele>127.4</ele>
        <time>2011-04-10T07:12:59Z</time>
      </trkpt>
      <trkpt lat="44.04589" lon="0.52625">
        <ele>124.5</ele>
        <time>2011-04-10T07:12:41Z</time>
      </trkpt>
      <trkpt lat="44.04609" lon="0.52637">
        <ele>123.7</ele>
        <time>2011-04-10T07:12:32Z</time>
      </trkpt>
      <trkpt lat="44.04636" lon="0.52637">
        <ele>122.7</ele>
        <time>2011-04-10T07:12:14Z</time>
      </trkpt>
      <trkpt lat="44.04654" lon="0.52636">
        <ele>121.3</ele>
        <time>2011-04-10T07:12:06Z</time>
      </trkpt>
      <trkpt lat="44.04673" lon="0.52649">
        <ele>119.7</ele>
        <time>2011-04-10T07:11:56Z</time>
      </trkpt>
      <trkpt lat="44.04687" lon="0.52702">
        <ele>120.8</ele>
        <time>2011-04-10T07:11:46Z</time>
      </trkpt>
      <trkpt lat="44.04699" lon="0.52727">
        <ele>120.3</ele>
        <time>2011-04-10T07:11:35Z</time>
      </trkpt>
      <trkpt lat="44.04717" lon="0.52732">
        <ele>118.5</ele>
        <time>2011-04-10T07:11:22Z</time>
      </trkpt>
      <trkpt lat="44.0473" lon="0.5273">
        <ele>116.4</ele>
        <time>2011-04-10T07:11:14Z</time>
      </trkpt>
      <trkpt lat="44.04753" lon="0.52723">
        <ele>111.1</ele>
        <time>2011-04-10T07:11:00Z</time>
      </trkpt>
      <trkpt lat="44.04767" lon="0.52726">
        <ele>109.9</ele>
        <time>2011-04-10T07:10:55Z</time>
      </trkpt>
      <trkpt lat="44.048" lon="0.52741">
        <ele>111.3</ele>
        <time>2011-04-10T07:10:50Z</time>
      </trkpt>
      <trkpt lat="44.04856" lon="0.52758">
        <ele>115.8</ele>
        <time>2011-04-10T07:10:44Z</time>
      </trkpt>
      <trkpt lat="44.04918" lon="0.52768">
        <ele>121.1</ele>
        <time>2011-04-10T07:10:38Z</time>
      </trkpt>
      <trkpt lat="44.04972" lon="0.5278">
        <ele>125.7</ele>
        <time>2011-04-10T07:10:32Z</time>
      </trkpt>
      <trkpt lat="44.05015" lon="0.52798">
        <ele>127.4</ele>
        <time>2011-04-10T07:10:27Z</time>
      </trkpt>
      <trkpt lat="44.05056" lon="0.52803">
        <ele>131.6</ele>
        <time>2011-04-10T07:10:22Z</time>
      </trkpt>
      <trkpt lat="44.05106" lon="0.52812">
        <ele>135.1</ele>
        <time>2011-04-10T07:10:16Z</time>
      </trkpt>
      <trkpt lat="44.05266" lon="0.52818">
        <ele>152.9</ele>
        <time>2011-04-10T07:09:54Z</time>
      </trkpt>
      <trkpt lat="44.05281" lon="0.52818">
        <ele>153.2</ele>
        <time>2011-04-10T07:09:50Z</time>
      </trkpt>
      <trkpt lat="44.05303" lon="0.52813">
        <ele>153.6</ele>
        <time>2011-04-10T07:09:40Z</time>
      </trkpt>
      <trkpt lat="44.05326" lon="0.52823">
        <ele>152.2</ele>
        <time>2011-04-10T07:09:30Z</time>
      </trkpt>
      <trkpt lat="44.05344" lon="0.52838">
        <ele>151.2</ele>
        <time>2011-04-10T07:09:21Z</time>
      </trkpt>
      <trkpt lat="44.05364" lon="0.52844">
        <ele>148.8</ele>
        <time>2011-04-10T07:09:12Z</time>
      </trkpt>
      <trkpt lat="44.05384" lon="0.52849">
        <ele>146.5</ele>
        <time>2011-04-10T07:08:59Z</time>
      </trkpt>
      <trkpt lat="44.05411" lon="0.52862">
        <ele>144.1</ele>
        <time>2011-04-10T07:08:47Z</time>
      </trkpt>
      <trkpt lat="44.05426" lon="0.52865">
        <ele>143.3</ele>
        <time>2011-04-10T07:08:41Z</time>
      </trkpt>
      <trkpt lat="44.05442" lon="0.52867">
        <ele>142.5</ele>
        <time>2011-04-10T07:08:35Z</time>
      </trkpt>
      <trkpt lat="44.05459" lon="0.52867">
        <ele>141.8</ele>
        <time>2011-04-10T07:08:29Z</time>
      </trkpt>
      <trkpt lat="44.05473" lon="0.52866">
        <ele>140.8</ele>
        <time>2011-04-10T07:08:24Z</time>
      </trkpt>
      <trkpt lat="44.05536" lon="0.52851">
        <ele>138.9</ele>
        <time>2011-04-10T07:08:04Z</time>
      </trkpt>
      <trkpt lat="44.05575" lon="0.52827">
        <ele>136.7</ele>
        <time>2011-04-10T07:07:47Z</time>
      </trkpt>
      <trkpt lat="44.05587" lon="0.52816">
        <ele>134.8</ele>
        <time>2011-04-10T07:07:43Z</time>
      </trkpt>
      <trkpt lat="44.05618" lon="0.52804">
        <ele>133.5</ele>
        <time>2011-04-10T07:07:35Z</time>
      </trkpt>
      <trkpt lat="44.05651" lon="0.52781">
        <ele>130.9</ele>
        <time>2011-04-10T07:07:29Z</time>
      </trkpt>
      <trkpt lat="44.05706" lon="0.52777">
        <ele>127.8</ele>
        <time>2011-04-10T07:07:25Z</time>
      </trkpt>
      <trkpt lat="44.05769" lon="0.52775">
        <ele>131.6</ele>
        <time>2011-04-10T07:07:21Z</time>
      </trkpt>
      <trkpt lat="44.05831" lon="0.528">
        <ele>142.4</ele>
        <time>2011-04-10T07:07:15Z</time>
      </trkpt>
      <trkpt lat="44.05916" lon="0.52847">
        <ele>149</ele>
        <time>2011-04-10T07:07:07Z</time>
      </trkpt>
      <trkpt lat="44.06057" lon="0.52877">
        <ele>162.6</ele>
        <time>2011-04-10T07:06:53Z</time>
      </trkpt>
      <trkpt lat="44.06143" lon="0.52901">
        <ele>163.9</ele>
        <time>2011-04-10T07:06:35Z</time>
      </trkpt>
      <trkpt lat="44.06159" lon="0.52904">
        <ele>163.2</ele>
        <time>2011-04-10T07:06:31Z</time>
      </trkpt>
      <trkpt lat="44.06174" lon="0.52905">
        <ele>163</ele>
        <time>2011-04-10T07:06:27Z</time>
      </trkpt>
      <trkpt lat="44.06184" lon="0.52888">
        <ele>163</ele>
        <time>2011-04-10T07:06:19Z</time>
      </trkpt>
      <trkpt lat="44.0618" lon="0.52868">
        <ele>162.2</ele>
        <time>2011-04-10T07:06:14Z</time>
      </trkpt>
      <trkpt lat="44.06173" lon="0.5285">
        <ele>161.7</ele>
        <time>2011-04-10T07:06:09Z</time>
      </trkpt>
      <trkpt lat="44.06181" lon="0.52806">
        <ele>160.5</ele>
        <time>2011-04-10T07:06:01Z</time>
      </trkpt>
      <trkpt lat="44.062" lon="0.52772">
        <ele>159.4</ele>
        <time>2011-04-10T07:05:55Z</time>
      </trkpt>
      <trkpt lat="44.06331" lon="0.5261">
        <ele>156.9</ele>
        <time>2011-04-10T07:05:26Z</time>
      </trkpt>
      <trkpt lat="44.06355" lon="0.52572">
        <ele>155.6</ele>
        <time>2011-04-10T07:05:20Z</time>
      </trkpt>
      <trkpt lat="44.06365" lon="0.52555">
        <ele>155.6</ele>
        <time>2011-04-10T07:05:16Z</time>
      </trkpt>
      <trkpt lat="44.06372" lon="0.52534">
        <ele>155.5</ele>
        <time>2011-04-10T07:05:11Z</time>
      </trkpt>
      <trkpt lat="44.06376" lon="0.52512">
        <ele>155.5</ele>
        <time>2011-04-10T07:05:06Z</time>
      </trkpt>
      <trkpt lat="44.06413" lon="0.52414">
        <ele>153.7</ele>
        <time>2011-04-10T07:04:46Z</time>
      </trkpt>
      <trkpt lat="44.06435" lon="0.52357">
        <ele>152.1</ele>
        <time>2011-04-10T07:04:36Z</time>
      </trkpt>
      <trkpt lat="44.06468" lon="0.52284">
        <ele>150</ele>
        <time>2011-04-10T07:04:24Z</time>
      </trkpt>
      <trkpt lat="44.0649" lon="0.52244">
        <ele>148.7</ele>
        <time>2011-04-10T07:04:18Z</time>
      </trkpt>
      <trkpt lat="44.06541" lon="0.52175">
        <ele>147.3</ele>
        <time>2011-04-10T07:04:07Z</time>
      </trkpt>
      <trkpt lat="44.06559" lon="0.52138">
        <ele>147.1</ele>
        <time>2011-04-10T07:04:01Z</time>
      </trkpt>
      <trkpt lat="44.06574" lon="0.52107">
        <ele>147</ele>
        <time>2011-04-10T07:03:53Z</time>
      </trkpt>
      <trkpt lat="44.06585" lon="0.5208">
        <ele>147.1</ele>
        <time>2011-04-10T07:03:46Z</time>
      </trkpt>
      <trkpt lat="44.06606" lon="0.5205">
        <ele>147.2</ele>
        <time>2011-04-10T07:03:37Z</time>
      </trkpt>
      <trkpt lat="44.06623" lon="0.52051">
        <ele>147.2</ele>
        <time>2011-04-10T07:03:26Z</time>
      </trkpt>
      <trkpt lat="44.06663" lon="0.52083">
        <ele>141.4</ele>
        <time>2011-04-10T07:02:58Z</time>
      </trkpt>
      <trkpt lat="44.06678" lon="0.52092">
        <ele>139.5</ele>
        <time>2011-04-10T07:02:49Z</time>
      </trkpt>
      <trkpt lat="44.06707" lon="0.52109">
        <ele>135</ele>
        <time>2011-04-10T07:02:24Z</time>
      </trkpt>
      <trkpt lat="44.0675" lon="0.5214">
        <ele>129.1</ele>
        <time>2011-04-10T07:01:55Z</time>
      </trkpt>
      <trkpt lat="44.06772" lon="0.52163">
        <ele>124.7</ele>
        <time>2011-04-10T07:01:35Z</time>
      </trkpt>
      <trkpt lat="44.06784" lon="0.52174">
        <ele>121.7</ele>
        <time>2011-04-10T07:01:28Z</time>
      </trkpt>
      <trkpt lat="44.06805" lon="0.5218">
        <ele>119.1</ele>
        <time>2011-04-10T07:01:20Z</time>
      </trkpt>
      <trkpt lat="44.06848" lon="0.52186">
        <ele>114.3</ele>
        <time>2011-04-10T07:01:00Z</time>
      </trkpt>
      <trkpt lat="44.06885" lon="0.52193">
        <ele>113</ele>
        <time>2011-04-10T07:00:44Z</time>
      </trkpt>
      <trkpt lat="44.06933" lon="0.5221">
        <ele>109</ele>
        <time>2011-04-10T07:00:22Z</time>
      </trkpt>
      <trkpt lat="44.06962" lon="0.52211">
        <ele>105.4</ele>
        <time>2011-04-10T07:00:05Z</time>
      </trkpt>
      <trkpt lat="44.06985" lon="0.52215">
        <ele>104.2</ele>
        <time>2011-04-10T06:59:57Z</time>
      </trkpt>
      <trkpt lat="44.07002" lon="0.52214">
        <ele>104</ele>
        <time>2011-04-10T06:59:50Z</time>
      </trkpt>
      <trkpt lat="44.0703" lon="0.52209">
        <ele>104.4</ele>
        <time>2011-04-10T06:59:36Z</time>
      </trkpt>
      <trkpt lat="44.07058" lon="0.52211">
        <ele>102.9</ele>
        <time>2011-04-10T06:59:10Z</time>
      </trkpt>
      <trkpt lat="44.07085" lon="0.52217">
        <ele>103.1</ele>
        <time>2011-04-10T06:58:45Z</time>
      </trkpt>
      <trkpt lat="44.07112" lon="0.52225">
        <ele>104</ele>
        <time>2011-04-10T06:58:23Z</time>
      </trkpt>
      <trkpt lat="44.07125" lon="0.52236">
        <ele>104</ele>
        <time>2011-04-10T06:58:19Z</time>
      </trkpt>
      <trkpt lat="44.07154" lon="0.52229">
        <ele>103.1</ele>
        <time>2011-04-10T06:58:11Z</time>
      </trkpt>
      <trkpt lat="44.07218" lon="0.52161">
        <ele>99.4</ele>
        <time>2011-04-10T06:57:53Z</time>
      </trkpt>
      <trkpt lat="44.07233" lon="0.52153">
        <ele>100.3</ele>
        <time>2011-04-10T06:57:49Z</time>
      </trkpt>
      <trkpt lat="44.07262" lon="0.52174">
        <ele>104.4</ele>
        <time>2011-04-10T06:57:43Z</time>
      </trkpt>
      <trkpt lat="44.07295" lon="0.52169">
        <ele>105.7</ele>
        <time>2011-04-10T06:57:35Z</time>
      </trkpt>
      <trkpt lat="44.07325" lon="0.52097">
        <ele>105.6</ele>
        <time>2011-04-10T06:57:23Z</time>
      </trkpt>
      <trkpt lat="44.0735" lon="0.52063">
        <ele>106.6</ele>
        <time>2011-04-10T06:57:17Z</time>
      </trkpt>
      <trkpt lat="44.07382" lon="0.52043">
        <ele>108.9</ele>
        <time>2011-04-10T06:57:11Z</time>
      </trkpt>
      <trkpt lat="44.07424" lon="0.52061">
        <ele>113.9</ele>
        <time>2011-04-10T06:57:04Z</time>
      </trkpt>
      <trkpt lat="44.07454" lon="0.52081">
        <ele>117</ele>
        <time>2011-04-10T06:56:59Z</time>
      </trkpt>
      <trkpt lat="44.07471" lon="0.52096">
        <ele>117.3</ele>
        <time>2011-04-10T06:56:54Z</time>
      </trkpt>
      <trkpt lat="44.07477" lon="0.52115">
        <ele>117.5</ele>
        <time>2011-04-10T06:56:50Z</time>
      </trkpt>
      <trkpt lat="44.07495" lon="0.52142">
        <ele>121</ele>
        <time>2011-04-10T06:56:45Z</time>
      </trkpt>
      <trkpt lat="44.07513" lon="0.52177">
        <ele>123</ele>
        <time>2011-04-10T06:56:41Z</time>
      </trkpt>
      <trkpt lat="44.07497" lon="0.52245">
        <ele>123.3</ele>
        <time>2011-04-10T06:56:35Z</time>
      </trkpt>
      <trkpt lat="44.07482" lon="0.52316">
        <ele>126</ele>
        <time>2011-04-10T06:56:29Z</time>
      </trkpt>
      <trkpt lat="44.07477" lon="0.52379">
        <ele>129.6</ele>
        <time>2011-04-10T06:56:23Z</time>
      </trkpt>
      <trkpt lat="44.07479" lon="0.52422">
        <ele>133.2</ele>
        <time>2011-04-10T06:56:19Z</time>
      </trkpt>
      <trkpt lat="44.07485" lon="0.52478">
        <ele>137.1</ele>
        <time>2011-04-10T06:56:13Z</time>
      </trkpt>
      <trkpt lat="44.07492" lon="0.52526">
        <ele>138.3</ele>
        <time>2011-04-10T06:56:08Z</time>
      </trkpt>
      <trkpt lat="44.07505" lon="0.52632">
        <ele>139.2</ele>
        <time>2011-04-10T06:55:58Z</time>
      </trkpt>
      <trkpt lat="44.07509" lon="0.52684">
        <ele>140</ele>
        <time>2011-04-10T06:55:53Z</time>
      </trkpt>
      <trkpt lat="44.07525" lon="0.52768">
        <ele>139.2</ele>
        <time>2011-04-10T06:55:47Z</time>
      </trkpt>
      <trkpt lat="44.07547" lon="0.52866">
        <ele>142.8</ele>
        <time>2011-04-10T06:55:41Z</time>
      </trkpt>
      <trkpt lat="44.07575" lon="0.52969">
        <ele>151.2</ele>
        <time>2011-04-10T06:55:35Z</time>
      </trkpt>
      <trkpt lat="44.07597" lon="0.53057">
        <ele>159.9</ele>
        <time>2011-04-10T06:55:29Z</time>
      </trkpt>
      <trkpt lat="44.07591" lon="0.5313">
        <ele>165</ele>
        <time>2011-04-10T06:55:23Z</time>
      </trkpt>
      <trkpt lat="44.07577" lon="0.53193">
        <ele>169.5</ele>
        <time>2011-04-10T06:55:17Z</time>
      </trkpt>
      <trkpt lat="44.07555" lon="0.53328">
        <ele>172.6</ele>
        <time>2011-04-10T06:55:02Z</time>
      </trkpt>
      <trkpt lat="44.07549" lon="0.53423">
        <ele>174</ele>
        <time>2011-04-10T06:54:50Z</time>
      </trkpt>
      <trkpt lat="44.07544" lon="0.53466">
        <ele>174.3</ele>
        <time>2011-04-10T06:54:45Z</time>
      </trkpt>
      <trkpt lat="44.07532" lon="0.53531">
        <ele>174.9</ele>
        <time>2011-04-10T06:54:38Z</time>
      </trkpt>
      <trkpt lat="44.07518" lon="0.53642">
        <ele>176.7</ele>
        <time>2011-04-10T06:54:26Z</time>
      </trkpt>
      <trkpt lat="44.07509" lon="0.53694">
        <ele>177.8</ele>
        <time>2011-04-10T06:54:20Z</time>
      </trkpt>
      <trkpt lat="44.07493" lon="0.53743">
        <ele>179</ele>
        <time>2011-04-10T06:54:14Z</time>
      </trkpt>
      <trkpt lat="44.07472" lon="0.53785">
        <ele>180</ele>
        <time>2011-04-10T06:54:08Z</time>
      </trkpt>
      <trkpt lat="44.07447" lon="0.53825">
        <ele>180.7</ele>
        <time>2011-04-10T06:54:02Z</time>
      </trkpt>
      <trkpt lat="44.07429" lon="0.53873">
        <ele>181.2</ele>
        <time>2011-04-10T06:53:56Z</time>
      </trkpt>
      <trkpt lat="44.07403" lon="0.53963">
        <ele>182</ele>
        <time>2011-04-10T06:53:44Z</time>
      </trkpt>
      <trkpt lat="44.07375" lon="0.54049">
        <ele>182.4</ele>
        <time>2011-04-10T06:53:32Z</time>
      </trkpt>
      <trkpt lat="44.07367" lon="0.54096">
        <ele>182.5</ele>
        <time>2011-04-10T06:53:26Z</time>
      </trkpt>
      <trkpt lat="44.07365" lon="0.54176">
        <ele>182</ele>
        <time>2011-04-10T06:53:12Z</time>
      </trkpt>
      <trkpt lat="44.07368" lon="0.54199">
        <ele>181.7</ele>
        <time>2011-04-10T06:53:06Z</time>
      </trkpt>
      <trkpt lat="44.0737" lon="0.54233">
        <ele>181</ele>
        <time>2011-04-10T06:52:56Z</time>
      </trkpt>
      <trkpt lat="44.07371" lon="0.54274">
        <ele>179.9</ele>
        <time>2011-04-10T06:52:41Z</time>
      </trkpt>
      <trkpt lat="44.07376" lon="0.54304">
        <ele>178.8</ele>
        <time>2011-04-10T06:52:31Z</time>
      </trkpt>
      <trkpt lat="44.07378" lon="0.54325">
        <ele>178.1</ele>
        <time>2011-04-10T06:52:26Z</time>
      </trkpt>
      <trkpt lat="44.0738" lon="0.54404">
        <ele>176.2</ele>
        <time>2011-04-10T06:52:09Z</time>
      </trkpt>
      <trkpt lat="44.07376" lon="0.54447">
        <ele>175.6</ele>
        <time>2011-04-10T06:52:01Z</time>
      </trkpt>
      <trkpt lat="44.07369" lon="0.54485">
        <ele>175.2</ele>
        <time>2011-04-10T06:51:55Z</time>
      </trkpt>
      <trkpt lat="44.07368" lon="0.54505">
        <ele>175</ele>
        <time>2011-04-10T06:51:51Z</time>
      </trkpt>
      <trkpt lat="44.07372" lon="0.54611">
        <ele>171.2</ele>
        <time>2011-04-10T06:51:28Z</time>
      </trkpt>
      <trkpt lat="44.07379" lon="0.5467">
        <ele>169.5</ele>
        <time>2011-04-10T06:51:07Z</time>
      </trkpt>
      <trkpt lat="44.0738" lon="0.5469">
        <ele>168.5</ele>
        <time>2011-04-10T06:51:03Z</time>
      </trkpt>
      <trkpt lat="44.07376" lon="0.54761">
        <ele>160.4</ele>
        <time>2011-04-10T06:50:40Z</time>
      </trkpt>
      <trkpt lat="44.07369" lon="0.54908">
        <ele>150.3</ele>
        <time>2011-04-10T06:49:44Z</time>
      </trkpt>
      <trkpt lat="44.07379" lon="0.54996">
        <ele>144.6</ele>
        <time>2011-04-10T06:49:31Z</time>
      </trkpt>
      <trkpt lat="44.07385" lon="0.5504">
        <ele>144.9</ele>
        <time>2011-04-10T06:49:25Z</time>
      </trkpt>
      <trkpt lat="44.07412" lon="0.55128">
        <ele>149.5</ele>
        <time>2011-04-10T06:49:13Z</time>
      </trkpt>
      <trkpt lat="44.07432" lon="0.55225">
        <ele>151.5</ele>
        <time>2011-04-10T06:49:01Z</time>
      </trkpt>
      <trkpt lat="44.0746" lon="0.55323">
        <ele>151.9</ele>
        <time>2011-04-10T06:48:49Z</time>
      </trkpt>
      <trkpt lat="44.07499" lon="0.55479">
        <ele>158</ele>
        <time>2011-04-10T06:48:33Z</time>
      </trkpt>
      <trkpt lat="44.07502" lon="0.55517">
        <ele>157.3</ele>
        <time>2011-04-10T06:48:19Z</time>
      </trkpt>
      <trkpt lat="44.07507" lon="0.55559">
        <ele>157.1</ele>
        <time>2011-04-10T06:48:02Z</time>
      </trkpt>
      <trkpt lat="44.07514" lon="0.55598">
        <ele>154.3</ele>
        <time>2011-04-10T06:47:53Z</time>
      </trkpt>
      <trkpt lat="44.07517" lon="0.55639">
        <ele>152.7</ele>
        <time>2011-04-10T06:47:44Z</time>
      </trkpt>
      <trkpt lat="44.07486" lon="0.55713">
        <ele>146.2</ele>
        <time>2011-04-10T06:47:31Z</time>
      </trkpt>
      <trkpt lat="44.07478" lon="0.55757">
        <ele>145</ele>
        <time>2011-04-10T06:47:26Z</time>
      </trkpt>
      <trkpt lat="44.07479" lon="0.55825">
        <ele>148.3</ele>
        <time>2011-04-10T06:47:20Z</time>
      </trkpt>
      <trkpt lat="44.07486" lon="0.55895">
        <ele>149.2</ele>
        <time>2011-04-10T06:47:14Z</time>
      </trkpt>
      <trkpt lat="44.07498" lon="0.55967">
        <ele>152</ele>
        <time>2011-04-10T06:47:08Z</time>
      </trkpt>
      <trkpt lat="44.07524" lon="0.56094">
        <ele>156.1</ele>
        <time>2011-04-10T06:46:58Z</time>
      </trkpt>
      <trkpt lat="44.07545" lon="0.56167">
        <ele>160.3</ele>
        <time>2011-04-10T06:46:52Z</time>
      </trkpt>
      <trkpt lat="44.0759" lon="0.56306">
        <ele>169.1</ele>
        <time>2011-04-10T06:46:42Z</time>
      </trkpt>
      <trkpt lat="44.07606" lon="0.56366">
        <ele>176.8</ele>
        <time>2011-04-10T06:46:38Z</time>
      </trkpt>
      <trkpt lat="44.07628" lon="0.56472">
        <ele>187.7</ele>
        <time>2011-04-10T06:46:27Z</time>
      </trkpt>
      <trkpt lat="44.07623" lon="0.56499">
        <ele>187</ele>
        <time>2011-04-10T06:46:22Z</time>
      </trkpt>
      <trkpt lat="44.07615" lon="0.56513">
        <ele>186.2</ele>
        <time>2011-04-10T06:46:18Z</time>
      </trkpt>
      <trkpt lat="44.07603" lon="0.56526">
        <ele>185.5</ele>
        <time>2011-04-10T06:46:13Z</time>
      </trkpt>
      <trkpt lat="44.07587" lon="0.56529">
        <ele>185</ele>
        <time>2011-04-10T06:46:08Z</time>
      </trkpt>
      <trkpt lat="44.07522" lon="0.56534">
        <ele>183.4</ele>
        <time>2011-04-10T06:45:50Z</time>
      </trkpt>
      <trkpt lat="44.07448" lon="0.56529">
        <ele>180.5</ele>
        <time>2011-04-10T06:45:29Z</time>
      </trkpt>
      <trkpt lat="44.074" lon="0.56528">
        <ele>178.6</ele>
        <time>2011-04-10T06:45:17Z</time>
      </trkpt>
      <trkpt lat="44.07378" lon="0.56531">
        <ele>177.9</ele>
        <time>2011-04-10T06:45:12Z</time>
      </trkpt>
      <trkpt lat="44.07366" lon="0.56541">
        <ele>176.6</ele>
        <time>2011-04-10T06:45:06Z</time>
      </trkpt>
      <trkpt lat="44.07365" lon="0.56561">
        <ele>176.3</ele>
        <time>2011-04-10T06:44:59Z</time>
      </trkpt>
      <trkpt lat="44.07369" lon="0.56584">
        <ele>176</ele>
        <time>2011-04-10T06:44:48Z</time>
      </trkpt>
      <trkpt lat="44.07373" lon="0.56623">
        <ele>175.2</ele>
        <time>2011-04-10T06:44:37Z</time>
      </trkpt>
      <trkpt lat="44.07375" lon="0.56644">
        <ele>174.8</ele>
        <time>2011-04-10T06:44:32Z</time>
      </trkpt>
      <trkpt lat="44.07379" lon="0.56667">
        <ele>174.3</ele>
        <time>2011-04-10T06:44:26Z</time>
      </trkpt>
      <trkpt lat="44.07384" lon="0.56686">
        <ele>173.7</ele>
        <time>2011-04-10T06:44:21Z</time>
      </trkpt>
      <trkpt lat="44.0743" lon="0.56787">
        <ele>170</ele>
        <time>2011-04-10T06:43:54Z</time>
      </trkpt>
      <trkpt lat="44.07457" lon="0.56878">
        <ele>166.8</ele>
        <time>2011-04-10T06:43:26Z</time>
      </trkpt>
      <trkpt lat="44.07464" lon="0.56897">
        <ele>165.9</ele>
        <time>2011-04-10T06:43:21Z</time>
      </trkpt>
      <trkpt lat="44.07485" lon="0.5692">
        <ele>164.6</ele>
        <time>2011-04-10T06:43:01Z</time>
      </trkpt>
      <trkpt lat="44.07492" lon="0.56957">
        <ele>160.5</ele>
        <time>2011-04-10T06:42:36Z</time>
      </trkpt>
      <trkpt lat="44.07495" lon="0.56994">
        <ele>156.5</ele>
        <time>2011-04-10T06:42:18Z</time>
      </trkpt>
      <trkpt lat="44.07498" lon="0.57034">
        <ele>155.7</ele>
        <time>2011-04-10T06:42:04Z</time>
      </trkpt>
      <trkpt lat="44.07509" lon="0.57141">
        <ele>145.5</ele>
        <time>2011-04-10T06:41:07Z</time>
      </trkpt>
      <trkpt lat="44.07511" lon="0.57179">
        <ele>143</ele>
        <time>2011-04-10T06:40:52Z</time>
      </trkpt>
      <trkpt lat="44.07522" lon="0.57254">
        <ele>140.1</ele>
        <time>2011-04-10T06:40:22Z</time>
      </trkpt>
      <trkpt lat="44.07531" lon="0.5729">
        <ele>138.6</ele>
        <time>2011-04-10T06:40:09Z</time>
      </trkpt>
      <trkpt lat="44.07544" lon="0.57328">
        <ele>135.8</ele>
        <time>2011-04-10T06:39:54Z</time>
      </trkpt>
      <trkpt lat="44.07568" lon="0.574">
        <ele>131.5</ele>
        <time>2011-04-10T06:39:24Z</time>
      </trkpt>
      <trkpt lat="44.07594" lon="0.57516">
        <ele>122.7</ele>
        <time>2011-04-10T06:38:49Z</time>
      </trkpt>
      <trkpt lat="44.07607" lon="0.57554">
        <ele>119.8</ele>
        <time>2011-04-10T06:38:40Z</time>
      </trkpt>
      <trkpt lat="44.07617" lon="0.576">
        <ele>119.3</ele>
        <time>2011-04-10T06:38:28Z</time>
      </trkpt>
      <trkpt lat="44.07617" lon="0.57652">
        <ele>120.8</ele>
        <time>2011-04-10T06:38:22Z</time>
      </trkpt>
      <trkpt lat="44.07622" lon="0.5769">
        <ele>120.5</ele>
        <time>2011-04-10T06:38:18Z</time>
      </trkpt>
      <trkpt lat="44.07648" lon="0.57823">
        <ele>126</ele>
        <time>2011-04-10T06:38:01Z</time>
      </trkpt>
      <trkpt lat="44.07675" lon="0.5806">
        <ele>132.2</ele>
        <time>2011-04-10T06:37:26Z</time>
      </trkpt>
      <trkpt lat="44.07673" lon="0.58105">
        <ele>132.4</ele>
        <time>2011-04-10T06:37:19Z</time>
      </trkpt>
      <trkpt lat="44.07657" lon="0.58182">
        <ele>132.4</ele>
        <time>2011-04-10T06:37:05Z</time>
      </trkpt>
      <trkpt lat="44.07644" lon="0.58261">
        <ele>131.7</ele>
        <time>2011-04-10T06:36:45Z</time>
      </trkpt>
      <trkpt lat="44.07634" lon="0.58298">
        <ele>132.1</ele>
        <time>2011-04-10T06:36:28Z</time>
      </trkpt>
      <trkpt lat="44.07619" lon="0.58331">
        <ele>130.5</ele>
        <time>2011-04-10T06:36:16Z</time>
      </trkpt>
      <trkpt lat="44.07602" lon="0.58362">
        <ele>129.1</ele>
        <time>2011-04-10T06:36:03Z</time>
      </trkpt>
      <trkpt lat="44.07574" lon="0.58432">
        <ele>126.5</ele>
        <time>2011-04-10T06:35:34Z</time>
      </trkpt>
      <trkpt lat="44.07567" lon="0.58469">
        <ele>123.7</ele>
        <time>2011-04-10T06:35:19Z</time>
      </trkpt>
      <trkpt lat="44.07556" lon="0.58506">
        <ele>120.7</ele>
        <time>2011-04-10T06:35:02Z</time>
      </trkpt>
      <trkpt lat="44.07498" lon="0.58616">
        <ele>115.4</ele>
        <time>2011-04-10T06:34:41Z</time>
      </trkpt>
      <trkpt lat="44.0746" lon="0.58948">
        <ele>136.3</ele>
        <time>2011-04-10T06:34:17Z</time>
      </trkpt>
      <trkpt lat="44.07462" lon="0.58994">
        <ele>141.2</ele>
        <time>2011-04-10T06:34:13Z</time>
      </trkpt>
      <trkpt lat="44.07467" lon="0.59049">
        <ele>147.5</ele>
        <time>2011-04-10T06:34:08Z</time>
      </trkpt>
      <trkpt lat="44.07431" lon="0.59131">
        <ele>146.1</ele>
        <time>2011-04-10T06:33:56Z</time>
      </trkpt>
      <trkpt lat="44.07412" lon="0.5918">
        <ele>147</ele>
        <time>2011-04-10T06:33:49Z</time>
      </trkpt>
      <trkpt lat="44.0738" lon="0.59267">
        <ele>144.9</ele>
        <time>2011-04-10T06:33:38Z</time>
      </trkpt>
      <trkpt lat="44.07366" lon="0.593">
        <ele>144.5</ele>
        <time>2011-04-10T06:33:28Z</time>
      </trkpt>
      <trkpt lat="44.07351" lon="0.59319">
        <ele>141</ele>
        <time>2011-04-10T06:33:18Z</time>
      </trkpt>
      <trkpt lat="44.07324" lon="0.59305">
        <ele>135.9</ele>
        <time>2011-04-10T06:33:02Z</time>
      </trkpt>
      <trkpt lat="44.07283" lon="0.59253">
        <ele>129.1</ele>
        <time>2011-04-10T06:32:38Z</time>
      </trkpt>
      <trkpt lat="44.07251" lon="0.59219">
        <ele>125.1</ele>
        <time>2011-04-10T06:32:17Z</time>
      </trkpt>
      <trkpt lat="44.07202" lon="0.59176">
        <ele>119</ele>
        <time>2011-04-10T06:31:57Z</time>
      </trkpt>
      <trkpt lat="44.07141" lon="0.59113">
        <ele>113</ele>
        <time>2011-04-10T06:31:34Z</time>
      </trkpt>
      <trkpt lat="44.07098" lon="0.59062">
        <ele>108.3</ele>
        <time>2011-04-10T06:31:26Z</time>
      </trkpt>
      <trkpt lat="44.07057" lon="0.59004">
        <ele>103.5</ele>
        <time>2011-04-10T06:31:19Z</time>
      </trkpt>
      <trkpt lat="44.07013" lon="0.58935">
        <ele>102.7</ele>
        <time>2011-04-10T06:31:13Z</time>
      </trkpt>
      <trkpt lat="44.06949" lon="0.58884">
        <ele>107.4</ele>
        <time>2011-04-10T06:31:03Z</time>
      </trkpt>
      <trkpt lat="44.06903" lon="0.589">
        <ele>109.1</ele>
        <time>2011-04-10T06:30:53Z</time>
      </trkpt>
      <trkpt lat="44.0686" lon="0.58936">
        <ele>112.8</ele>
        <time>2011-04-10T06:30:42Z</time>
      </trkpt>
      <trkpt lat="44.06836" lon="0.5896">
        <ele>111.4</ele>
        <time>2011-04-10T06:30:36Z</time>
      </trkpt>
      <trkpt lat="44.06823" lon="0.58988">
        <ele>110.7</ele>
        <time>2011-04-10T06:30:30Z</time>
      </trkpt>
      <trkpt lat="44.06817" lon="0.59009">
        <ele>110.4</ele>
        <time>2011-04-10T06:30:26Z</time>
      </trkpt>
      <trkpt lat="44.06808" lon="0.59043">
        <ele>110</ele>
        <time>2011-04-10T06:30:20Z</time>
      </trkpt>
      <trkpt lat="44.06797" lon="0.59075">
        <ele>106.9</ele>
      </trkpt>
      <trkpt lat="44.06733" lon="0.59056">
        <ele>111.2</ele>
      </trkpt>
      <trkpt lat="44.0667" lon="0.58956">
        <ele>118.4</ele>
      </trkpt>
      <trkpt lat="44.06608" lon="0.58775">
        <ele>127.2</ele>
      </trkpt>
      <trkpt lat="44.06643" lon="0.58601">
        <ele>138.1</ele>
      </trkpt>
      <trkpt lat="44.06653" lon="0.58472">
        <ele>146</ele>
      </trkpt>
      <trkpt lat="44.06685" lon="0.58414">
        <ele>149.1</ele>
      </trkpt>
      <trkpt lat="44.06719" lon="0.5833">
        <ele>151.9</ele>
      </trkpt>
      <trkpt lat="44.067" lon="0.58207">
        <ele>150.8</ele>
      </trkpt>
      <trkpt lat="44.06694" lon="0.58143">
        <ele>151</ele>
      </trkpt>
      <trkpt lat="44.06666" lon="0.58032">
        <ele>155.7</ele>
      </trkpt>
      <trkpt lat="44.06657" lon="0.57863">
        <ele>158</ele>
      </trkpt>
      <trkpt lat="44.06669" lon="0.57783">
        <ele>160.2</ele>
      </trkpt>
      <trkpt lat="44.06639" lon="0.57468">
        <ele>167</ele>
      </trkpt>
      <trkpt lat="44.06632" lon="0.57298">
        <ele>171.3</ele>
      </trkpt>
      <trkpt lat="44.06622" lon="0.57223">
        <ele>173.7</ele>
      </trkpt>
      <trkpt lat="44.06603" lon="0.57178">
        <ele>175.8</ele>
      </trkpt>
      <trkpt lat="44.06526" lon="0.57092">
        <ele>179.2</ele>
      </trkpt>
      <trkpt lat="44.06498" lon="0.57079">
        <ele>182.3</ele>
      </trkpt>
      <trkpt lat="44.06523" lon="0.56985">
        <ele>183.7</ele>
      </trkpt>
      <trkpt lat="44.06564" lon="0.56872">
        <ele>183.8</ele>
      </trkpt>
      <trkpt lat="44.06505" lon="0.56874">
        <ele>183.1</ele>
      </trkpt>
      <trkpt lat="44.06435" lon="0.56901">
        <ele>179.9</ele>
      </trkpt>
      <trkpt lat="44.06342" lon="0.56919">
        <ele>177</ele>
      </trkpt>
      <trkpt lat="44.05997" lon="0.56644">
        <ele>175.2</ele>
      </trkpt>
      <trkpt lat="44.05898" lon="0.56421">
        <ele>179.3</ele>
      </trkpt>
      <trkpt lat="44.05877" lon="0.56125">
        <ele>180.8</ele>
      </trkpt>
      <trkpt lat="44.05816" lon="0.55859">
        <ele>180.1</ele>
      </trkpt>
      <trkpt lat="44.05946" lon="0.55775">
        <ele>176</ele>
      </trkpt>
      <trkpt lat="44.05964" lon="0.55661">
        <ele>176.2</ele>
      </trkpt>
      <trkpt lat="44.05939" lon="0.55485">
        <ele>180.2</ele>
      </trkpt>
      <trkpt lat="44.05998" lon="0.55331">
        <ele>176.1</ele>
      </trkpt>
      <trkpt lat="44.0599" lon="0.55251">
        <ele>175.4</ele>
      </trkpt>
      <trkpt lat="44.05984" lon="0.54942">
        <ele>174.5</ele>
      </trkpt>
      <trkpt lat="44.05987" lon="0.54816">
        <ele>173.7</ele>
      </trkpt>
      <trkpt lat="44.05987" lon="0.54706">
        <ele>170.8</ele>
      </trkpt>
      <trkpt lat="44.05942" lon="0.54455">
        <ele>169.5</ele>
      </trkpt>
      <trkpt lat="44.05901" lon="0.54331">
        <ele>170.4</ele>
      </trkpt>
      <trkpt lat="44.05909" lon="0.54063">
        <ele>173.9</ele>
      </trkpt>
      <trkpt lat="44.05804" lon="0.53983">
        <ele>172.3</ele>
      </trkpt>
      <trkpt lat="44.0574" lon="0.53805">
        <ele>171</ele>
      </trkpt>
      <trkpt lat="44.05646" lon="0.53668">
        <ele>168</ele>
      </trkpt>
      <trkpt lat="44.05538" lon="0.53488">
        <ele>166.8</ele>
      </trkpt>
      <trkpt lat="44.05483" lon="0.5341">
        <ele>167.6</ele>
      </trkpt>
      <trkpt lat="44.05448" lon="0.53371">
        <ele>168</ele>
      </trkpt>
      <trkpt lat="44.05406" lon="0.53304">
        <ele>165.5</ele>
      </trkpt>
      <trkpt lat="44.0537" lon="0.53198">
        <ele>165</ele>
      </trkpt>
      <trkpt lat="44.05348" lon="0.53073">
        <ele>163.8</ele>
      </trkpt>
      <trkpt lat="44.05316" lon="0.52933">
        <ele>160.6</ele>
      </trkpt>
      <trkpt lat="44.0528" lon="0.52783">
        <ele>157.9</ele>
      </trkpt>
      <trkpt lat="44.05167" lon="0.52361">
        <ele>144</ele>
      </trkpt>
      <trkpt lat="44.05124" lon="0.52164">
        <ele>143.3</ele>
      </trkpt>
      <trkpt lat="44.05111" lon="0.51988">
        <ele>142</ele>
      </trkpt>
      <trkpt lat="44.05235" lon="0.51966">
        <ele>158.9</ele>
      </trkpt>
      <trkpt lat="44.05451" lon="0.51494">
        <ele>164.5</ele>
      </trkpt>
      <trkpt lat="44.05525" lon="0.51314">
        <ele>167</ele>
      </trkpt>
      <trkpt lat="44.05729" lon="0.51138">
        <ele>145.9</ele>
      </trkpt>
      <trkpt lat="44.05698" lon="0.50902">
        <ele>130.8</ele>
      </trkpt>
      <trkpt lat="44.0579" lon="0.50743">
        <ele>118.1</ele>
      </trkpt>
      <trkpt lat="44.05815" lon="0.50623">
        <ele>112.4</ele>
      </trkpt>
      <trkpt lat="44.05793" lon="0.50241">
        <ele>90.6</ele>
      </trkpt>
      <trkpt lat="44.05741" lon="0.50138">
        <ele>92</ele>
      </trkpt>
      <trkpt lat="44.05775" lon="0.49893">
        <ele>95.9</ele>
      </trkpt>
      <trkpt lat="44.0588" lon="0.49653">
        <ele>102.3</ele>
      </trkpt>
      <trkpt lat="44.05985" lon="0.49584">
        <ele>106</ele>
      </trkpt>
      <trkpt lat="44.0617" lon="0.49563">
        <ele>102.6</ele>
      </trkpt>
      <trkpt lat="44.06284" lon="0.49657">
        <ele>94.9</ele>
      </trkpt>
      <trkpt lat="44.06401" lon="0.4964">
        <ele>92.9</ele>
      </trkpt>
      <trkpt lat="44.0645" lon="0.49722">
        <ele>89</ele>
      </trkpt>
      <trkpt lat="44.06558" lon="0.49554">
        <ele>88.9</ele>
      </trkpt>
      <trkpt lat="44.06598" lon="0.49456">
        <ele>88</ele>
      </trkpt>
      <trkpt lat="44.06672" lon="0.49233">
        <ele>95.4</ele>
      </trkpt>
      <trkpt lat="44.0653" lon="0.49095">
        <ele>102.4</ele>
      </trkpt>
      <trkpt lat="44.06352" lon="0.48881">
        <ele>111.3</ele>
      </trkpt>
      <trkpt lat="44.06271" lon="0.48743">
        <ele>114.4</ele>
      </trkpt>
      <trkpt lat="44.06093" lon="0.48688">
        <ele>124.3</ele>
      </trkpt>
      <trkpt lat="44.05932" lon="0.4855">
        <ele>131.6</ele>
      </trkpt>
      <trkpt lat="44.05773" lon="0.48443">
        <ele>130.9</ele>
      </trkpt>
      <trkpt lat="44.05599" lon="0.48331">
        <ele>131.5</ele>
      </trkpt>
      <trkpt lat="44.05463" lon="0.4825">
        <ele>140.3</ele>
      </trkpt>
      <trkpt lat="44.05369" lon="0.48177">
        <ele>135.6</ele>
      </trkpt>
      <trkpt lat="44.05346" lon="0.48185">
        <ele>135.3</ele>
      </trkpt>
      <trkpt lat="44.05275" lon="0.48396">
        <ele>140.9</ele>
      </trkpt>
      <trkpt lat="44.05221" lon="0.48632">
        <ele>133.9</ele>
      </trkpt>
      <trkpt lat="44.05181" lon="0.48844">
        <ele>131.7</ele>
      </trkpt>
      <trkpt lat="44.05191" lon="0.49059">
        <ele>131.8</ele>
      </trkpt>
      <trkpt lat="44.05159" lon="0.49194">
        <ele>132.4</ele>
      </trkpt>
      <trkpt lat="44.05094" lon="0.49572">
        <ele>123.4</ele>
      </trkpt>
      <trkpt lat="44.05045" lon="0.49788">
        <ele>113.9</ele>
      </trkpt>
      <trkpt lat="44.05037" lon="0.49908">
        <ele>108.6</ele>
      </trkpt>
      <trkpt lat="44.05056" lon="0.50026">
        <ele>106.1</ele>
      </trkpt>
      <trkpt lat="44.05054" lon="0.50177">
        <ele>103</ele>
      </trkpt>
      <trkpt lat="44.05036" lon="0.50258">
        <ele>100.6</ele>
      </trkpt>
      <trkpt lat="44.04991" lon="0.50325">
        <ele>97.2</ele>
      </trkpt>
      <trkpt lat="44.04939" lon="0.50293">
        <ele>98.3</ele>
      </trkpt>
      <trkpt lat="44.04885" lon="0.50198">
        <ele>102.9</ele>
      </trkpt>
      <trkpt lat="44.04823" lon="0.50224">
        <ele>105.4</ele>
      </trkpt>
      <trkpt lat="44.04707" lon="0.50222">
        <ele>107</ele>
      </trkpt>
      <trkpt lat="44.04713" lon="0.50361">
        <ele>103</ele>
      </trkpt>
      <trkpt lat="44.04684" lon="0.50441">
        <ele>100.2</ele>
      </trkpt>
      <trkpt lat="44.04629" lon="0.50488">
        <ele>96.6</ele>
      </trkpt>
      <trkpt lat="44.04596" lon="0.50595">
        <ele>96.2</ele>
      </trkpt>
      <trkpt lat="44.04514" lon="0.50805">
        <ele>111</ele>
      </trkpt>
      <trkpt lat="44.04443" lon="0.50941">
        <ele>120</ele>
      </trkpt>
      <trkpt lat="44.04302" lon="0.51149">
        <ele>134.4</ele>
      </trkpt>
      <trkpt lat="44.04229" lon="0.5123">
        <ele>136.5</ele>
      </trkpt>
      <trkpt lat="44.04178" lon="0.51408">
        <ele>138.1</ele>
      </trkpt>
      <trkpt lat="44.04084" lon="0.51623">
        <ele>144.9</ele>
      </trkpt>
      <trkpt lat="44.03965" lon="0.51627">
        <ele>161.2</ele>
      </trkpt>
      <trkpt lat="44.03924" lon="0.51625">
        <ele>166.1</ele>
      </trkpt>
      <trkpt lat="44.03897" lon="0.5158">
        <ele>163.5</ele>
      </trkpt>
      <trkpt lat="44.03796" lon="0.51496">
        <ele>149.4</ele>
      </trkpt>
      <trkpt lat="44.03726" lon="0.51505">
        <ele>148.5</ele>
      </trkpt>
      <trkpt lat="44.03691" lon="0.51496">
        <ele>146.5</ele>
      </trkpt>
      <trkpt lat="44.03674" lon="0.51487">
        <ele>144.8</ele>
      </trkpt>
      <trkpt lat="44.03686" lon="0.51364">
        <ele>135.9</ele>
      </trkpt>
      <trkpt lat="44.03684" lon="0.51342">
        <ele>134.5</ele>
      </trkpt>
      <trkpt lat="44.03672" lon="0.51334">
        <ele>134</ele>
      </trkpt>
      <trkpt lat="44.03566" lon="0.5128">
        <ele>125.5</ele>
      </trkpt>
      <trkpt lat="44.03504" lon="0.51251">
        <ele>127.6</ele>
      </trkpt>
      <trkpt lat="44.03312" lon="0.51157">
        <ele>138.8</ele>
      </trkpt>
      <trkpt lat="44.03205" lon="0.5111">
        <ele>132.3</ele>
      </trkpt>
      <trkpt lat="44.03182" lon="0.5109">
        <ele>129.2</ele>
      </trkpt>
      <trkpt lat="44.03114" lon="0.51051">
        <ele>122.9</ele>
      </trkpt>
      <trkpt lat="44.0308" lon="0.5104">
        <ele>119.7</ele>
      </trkpt>
      <trkpt lat="44.03043" lon="0.51035">
        <ele>118.2</ele>
      </trkpt>
      <trkpt lat="44.03026" lon="0.51032">
        <ele>117.4</ele>
      </trkpt>
      <trkpt lat="44.02987" lon="0.51003">
        <ele>114.8</ele>
      </trkpt>
      <trkpt lat="44.02944" lon="0.5097">
        <ele>111.8</ele>
      </trkpt>
      <trkpt lat="44.02899" lon="0.50948">
        <ele>110</ele>
      </trkpt>
      <trkpt lat="44.02878" lon="0.50945">
        <ele>109.6</ele>
      </trkpt>
      <trkpt lat="44.02832" lon="0.50959">
        <ele>108.5</ele>
      </trkpt>
      <trkpt lat="44.02817" lon="0.5096">
        <ele>108.6</ele>
      </trkpt>
      <trkpt lat="44.02798" lon="0.5096">
        <ele>108.6</ele>
      </trkpt>
      <trkpt lat="44.02707" lon="0.50972">
        <ele>109</ele>
      </trkpt>
      <trkpt lat="44.027" lon="0.50977">
        <ele>109.2</ele>
      </trkpt>
      <trkpt lat="44.02655" lon="0.5098">
        <ele>109.3</ele>
      </trkpt>
      <trkpt lat="44.02616" lon="0.50979">
        <ele>109.2</ele>
      </trkpt>
      <trkpt lat="44.0259" lon="0.50974">
        <ele>109.8</ele>
      </trkpt>
      <trkpt lat="44.02565" lon="0.50966">
        <ele>109.8</ele>
      </trkpt>
      <trkpt lat="44.02502" lon="0.50989">
        <ele>111.5</ele>
      </trkpt>
      <trkpt lat="44.02462" lon="0.50998">
        <ele>112.4</ele>
      </trkpt>
      <trkpt lat="44.02418" lon="0.51">
        <ele>114</ele>
      </trkpt>
      <trkpt lat="44.02357" lon="0.50989">
        <ele>116.6</ele>
      </trkpt>
      <trkpt lat="44.02314" lon="0.5099">
        <ele>116.6</ele>
      </trkpt>
      <trkpt lat="44.02287" lon="0.50994">
        <ele>116.5</ele>
      </trkpt>
      <trkpt lat="44.02218" lon="0.50999">
        <ele>116.9</ele>
      </trkpt>
      <trkpt lat="44.0215" lon="0.50992">
        <ele>117</ele>
      </trkpt>
      <trkpt lat="44.02095" lon="0.50982">
        <ele>118</ele>
      </trkpt>
      <trkpt lat="44.02024" lon="0.50974">
        <ele>117.3</ele>
      </trkpt>
      <trkpt lat="44.01988" lon="0.50971">
        <ele>117.4</ele>
      </trkpt>
      <trkpt lat="44.01972" lon="0.50973">
        <ele>117.1</ele>
      </trkpt>
      <trkpt lat="44.01931" lon="0.50989">
        <ele>118.3</ele>
      </trkpt>
      <trkpt lat="44.0188" lon="0.50999">
        <ele>118.9</ele>
      </trkpt>
      <trkpt lat="44.01864" lon="0.50999">
        <ele>118.9</ele>
      </trkpt>
      <trkpt lat="44.01812" lon="0.50983">
        <ele>119.4</ele>
      </trkpt>
      <trkpt lat="44.01793" lon="0.50983">
        <ele>119.7</ele>
      </trkpt>
      <trkpt lat="44.01754" lon="0.50963">
        <ele>118.6</ele>
      </trkpt>
      <trkpt lat="44.01721" lon="0.50951">
        <ele>117.8</ele>
      </trkpt>
      <trkpt lat="44.0169" lon="0.50947">
        <ele>118.2</ele>
      </trkpt>
      <trkpt lat="44.0168" lon="0.50939">
        <ele>117.6</ele>
      </trkpt>
      <trkpt lat="44.01677" lon="0.50928">
        <ele>116.8</ele>
      </trkpt>
      <trkpt lat="44.01676" lon="0.50884">
        <ele>115.7</ele>
      </trkpt>
      <trkpt lat="44.01669" lon="0.50869">
        <ele>115.9</ele>
      </trkpt>
      <trkpt lat="44.01658" lon="0.50865">
        <ele>116</ele>
      </trkpt>
      <trkpt lat="44.01638" lon="0.50862">
        <ele>116</ele>
      </trkpt>
      <trkpt lat="44.01617" lon="0.50857">
        <ele>116</ele>
      </trkpt>
      <trkpt lat="44.01591" lon="0.50837">
        <ele>116</ele>
      </trkpt>
      <trkpt lat="44.01562" lon="0.50833">
        <ele>116</ele>
      </trkpt>
      <trkpt lat="44.01536" lon="0.50822">
        <ele>116.8</ele>
      </trkpt>
      <trkpt lat="44.0148" lon="0.5079">
        <ele>117</ele>
      </trkpt>
      <trkpt lat="44.01427" lon="0.5081">
        <ele>117.6</ele>
      </trkpt>
      <trkpt lat="44.0138" lon="0.5082">
        <ele>118</ele>
      </trkpt>
      <trkpt lat="44.01335" lon="0.50834">
        <ele>118</ele>
      </trkpt>
      <trkpt lat="44.0131" lon="0.50845">
        <ele>118</ele>
      </trkpt>
      <trkpt lat="44.01293" lon="0.50861">
        <ele>118</ele>
      </trkpt>
      <trkpt lat="44.01273" lon="0.50878">
        <ele>118.1</ele>
      </trkpt>
      <trkpt lat="44.01263" lon="0.50883">
        <ele>118.4</ele>
      </trkpt>
      <trkpt lat="44.01251" lon="0.50882">
        <ele>118.7</ele>
      </trkpt>
      <trkpt lat="44.0124" lon="0.50876">
        <ele>118.7</ele>
      </trkpt>
      <trkpt lat="44.01125" lon="0.50799">
        <ele>119.4</ele>
      </trkpt>
      <trkpt lat="44.01058" lon="0.50742">
        <ele>120</ele>
      </trkpt>
      <trkpt lat="44.00969" lon="0.50681">
        <ele>120.1</ele>
      </trkpt>
      <trkpt lat="44.00929" lon="0.5066">
        <ele>120.9</ele>
      </trkpt>
      <trkpt lat="44.00873" lon="0.50648">
        <ele>121.9</ele>
      </trkpt>
      <trkpt lat="44.00827" lon="0.50648">
        <ele>122.3</ele>
      </trkpt>
      <trkpt lat="44.008" lon="0.50648">
        <ele>122.5</ele>
      </trkpt>
      <trkpt lat="44.00786" lon="0.5065">
        <ele>123.1</ele>
      </trkpt>
      <trkpt lat="44.00765" lon="0.50635">
        <ele>122.9</ele>
      </trkpt>
      <trkpt lat="44.0074" lon="0.50617">
        <ele>123.1</ele>
      </trkpt>
      <trkpt lat="44.00726" lon="0.50615">
        <ele>123.1</ele>
      </trkpt>
      <trkpt lat="44.00676" lon="0.50621">
        <ele>124</ele>
      </trkpt>
      <trkpt lat="44.00645" lon="0.50627">
        <ele>124.6</ele>
      </trkpt>
      <trkpt lat="44.00627" lon="0.50626">
        <ele>124.8</ele>
      </trkpt>
      <trkpt lat="44.00585" lon="0.50622">
        <ele>125.3</ele>
      </trkpt>
      <trkpt lat="44.00456" lon="0.50607">
        <ele>126.8</ele>
      </trkpt>
      <trkpt lat="44.00437" lon="0.50605">
        <ele>127.3</ele>
      </trkpt>
      <trkpt lat="44.00411" lon="0.50603">
        <ele>129</ele>
      </trkpt>
      <trkpt lat="44.00391" lon="0.50612">
        <ele>129.9</ele>
      </trkpt>
      <trkpt lat="44.00368" lon="0.50586">
        <ele>130</ele>
      </trkpt>
      <trkpt lat="44.00346" lon="0.50575">
        <ele>129.9</ele>
      </trkpt>
      <trkpt lat="44.00296" lon="0.50564">
        <ele>130</ele>
      </trkpt>
      <trkpt lat="44.00241" lon="0.50554">
        <ele>130.3</ele>
      </trkpt>
      <trkpt lat="44.00211" lon="0.50549">
        <ele>130.9</ele>
      </trkpt>
      <trkpt lat="44.00024" lon="0.50506">
        <ele>132.6</ele>
      </trkpt>
      <trkpt lat="43.9998" lon="0.50492">
        <ele>133.5</ele>
      </trkpt>
      <trkpt lat="43.99915" lon="0.50459">
        <ele>134</ele>
      </trkpt>
      <trkpt lat="43.99904" lon="0.50459">
        <ele>134.2</ele>
      </trkpt>
      <trkpt lat="43.9985" lon="0.50443">
        <ele>134.4</ele>
      </trkpt>
      <trkpt lat="43.99836" lon="0.50435">
        <ele>134.6</ele>
      </trkpt>
      <trkpt lat="43.99785" lon="0.50396">
        <ele>135.7</ele>
      </trkpt>
      <trkpt lat="43.99774" lon="0.50396">
        <ele>136.1</ele>
      </trkpt>
      <trkpt lat="43.99768" lon="0.5041">
        <ele>136.5</ele>
      </trkpt>
      <trkpt lat="43.99752" lon="0.50452">
        <ele>140.7</ele>
      </trkpt>
      <trkpt lat="43.9974" lon="0.50457">
        <ele>142.1</ele>
      </trkpt>
      <trkpt lat="43.99717" lon="0.50446">
        <ele>142.9</ele>
      </trkpt>
      <trkpt lat="43.99626" lon="0.50382">
        <ele>142.2</ele>
      </trkpt>
      <trkpt lat="43.99589" lon="0.5036">
        <ele>142.5</ele>
      </trkpt>
      <trkpt lat="43.99571" lon="0.50353">
        <ele>142.6</ele>
      </trkpt>
      <trkpt lat="43.99554" lon="0.50351">
        <ele>142.9</ele>
      </trkpt>
      <trkpt lat="43.99486" lon="0.50359">
        <ele>147.3</ele>
      </trkpt>
      <trkpt lat="43.99432" lon="0.50369">
        <ele>146.2</ele>
      </trkpt>
      <trkpt lat="43.99409" lon="0.50361">
        <ele>143.7</ele>
      </trkpt>
      <trkpt lat="43.99389" lon="0.50349">
        <ele>142.6</ele>
      </trkpt>
      <trkpt lat="43.99363" lon="0.50339">
        <ele>142.2</ele>
      </trkpt>
      <trkpt lat="43.99327" lon="0.50327">
        <ele>145.6</ele>
      </trkpt>
      <trkpt lat="43.99263" lon="0.50302">
        <ele>149.6</ele>
      </trkpt>
      <trkpt lat="43.99232" lon="0.50269">
        <ele>147.5</ele>
      </trkpt>
      <trkpt lat="43.99213" lon="0.50246">
        <ele>145.4</ele>
      </trkpt>
      <trkpt lat="43.99177" lon="0.50211">
        <ele>144.8</ele>
      </trkpt>
      <trkpt lat="43.99151" lon="0.50183">
        <ele>144.7</ele>
      </trkpt>
      <trkpt lat="43.99109" lon="0.50146">
        <ele>144.5</ele>
      </trkpt>
      <trkpt lat="43.99086" lon="0.50122">
        <ele>144.9</ele>
      </trkpt>
      <trkpt lat="43.99071" lon="0.50119">
        <ele>145.4</ele>
      </trkpt>
      <trkpt lat="43.99051" lon="0.50117">
        <ele>146.3</ele>
      </trkpt>
      <trkpt lat="43.99027" lon="0.50119">
        <ele>148.1</ele>
      </trkpt>
      <trkpt lat="43.99007" lon="0.50122">
        <ele>150.5</ele>
      </trkpt>
      <trkpt lat="43.98987" lon="0.50122">
        <ele>152.6</ele>
      </trkpt>
      <trkpt lat="43.98949" lon="0.5012">
        <ele>156.7</ele>
      </trkpt>
      <trkpt lat="43.9891" lon="0.50115">
        <ele>162.9</ele>
      </trkpt>
      <trkpt lat="43.98866" lon="0.50111">
        <ele>168.2</ele>
      </trkpt>
      <trkpt lat="43.98818" lon="0.50104">
        <ele>170.9</ele>
      </trkpt>
      <trkpt lat="43.98801" lon="0.50102">
        <ele>171.1</ele>
      </trkpt>
      <trkpt lat="43.9873" lon="0.50121">
        <ele>173.4</ele>
      </trkpt>
      <trkpt lat="43.98686" lon="0.50131">
        <ele>175.8</ele>
      </trkpt>
      <trkpt lat="43.98665" lon="0.50134">
        <ele>176.9</ele>
      </trkpt>
      <trkpt lat="43.98647" lon="0.50133">
        <ele>177.5</ele>
      </trkpt>
      <trkpt lat="43.98634" lon="0.50128">
        <ele>177.8</ele>
      </trkpt>
      <trkpt lat="43.98606" lon="0.50105">
        <ele>179</ele>
      </trkpt>
      <trkpt lat="43.98584" lon="0.50093">
        <ele>179.3</ele>
      </trkpt>
      <trkpt lat="43.98566" lon="0.50093">
        <ele>179.6</ele>
      </trkpt>
      <trkpt lat="43.98543" lon="0.5009">
        <ele>179.5</ele>
      </trkpt>
      <trkpt lat="43.98522" lon="0.50084">
        <ele>179</ele>
      </trkpt>
      <trkpt lat="43.98506" lon="0.50069">
        <ele>178.5</ele>
      </trkpt>
      <trkpt lat="43.98492" lon="0.50054">
        <ele>178.3</ele>
      </trkpt>
      <trkpt lat="43.98473" lon="0.50029">
        <ele>178</ele>
      </trkpt>
      <trkpt lat="43.98457" lon="0.49995">
        <ele>179</ele>
      </trkpt>
      <trkpt lat="43.98444" lon="0.49966">
        <ele>179</ele>
      </trkpt>
      <trkpt lat="43.98434" lon="0.49945">
        <ele>179.8</ele>
      </trkpt>
      <trkpt lat="43.98424" lon="0.49926">
        <ele>180.2</ele>
      </trkpt>
      <trkpt lat="43.98415" lon="0.49913">
        <ele>179.9</ele>
      </trkpt>
      <trkpt lat="43.98399" lon="0.49906">
        <ele>180</ele>
      </trkpt>
      <trkpt lat="43.98372" lon="0.49893">
        <ele>179.9</ele>
      </trkpt>
      <trkpt lat="43.98327" lon="0.49858">
        <ele>179.3</ele>
      </trkpt>
      <trkpt lat="43.98261" lon="0.49804">
        <ele>183.7</ele>
      </trkpt>
    </trkseg>
  </trk>
</gpx>